Observation data for Goodnight on 04/06/2020      Previous  Date       Current Mesonet Observations  Soil Data  Daily Summary Page  Observations in Plain Language
KGO1 060500Z 17014KT 12/12 A2997 RMK A01 T01220122  RH  100%=      5-min Rain = 0
KGO1 060501Z 17014KT 12/12 A2997 RMK A01 T01220122  RH  100%=      5-min Rain = 0
KGO1 060502Z 17013KT 12/12 A2997 RMK A01 T01220122  RH  100%=      5-min Rain = 0
KGO1 060503Z 17014KT 12/12 A2997 RMK A01 T01210122  RH  100%=      5-min Rain = 0
KGO1 060504Z 17014KT 12/12 A2997 RMK A01 T01210121  RH  100%=      5-min Rain = 0
KGO1 060505Z 17015KT 12/12 A2997 RMK A01 T01220122  RH  100%=      5-min Rain = 0
KGO1 060506Z 17014KT 12/12 A2997 RMK A01 T01210121  RH  100%=      5-min Rain = 0
KGO1 060507Z 17013KT 12/12 A2997 RMK A01 T01210121  RH  100%=      5-min Rain = 0
KGO1 060508Z 17013KT 12/12 A2997 RMK A01 T01210121  RH  100%=      5-min Rain = 0
KGO1 060509Z 17012KT 12/12 A2997 RMK A01 T01210121  RH  100%=      5-min Rain = 0
KGO1 060510Z 17012KT 12/12 A2997 RMK A01 T01210121  RH  100%=      5-min Rain = 0
KGO1 060511Z 17014KT 12/12 A2997 RMK A01 T01210121  RH  100%=      5-min Rain = 0
KGO1 060512Z 17015KT 12/12 A2997 RMK A01 T01210121  RH  100%=      5-min Rain = 0
KGO1 060513Z 17014KT 12/12 A2997 RMK A01 T01210121  RH  100%=      5-min Rain = 0
KGO1 060514Z 17012KT 12/12 A2997 RMK A01 T01210121  RH  100%=      5-min Rain = 0
KGO1 060515Z 17011KT 12/12 A2997 RMK A01 T01210121  RH  100%=      5-min Rain = 0
KGO1 060516Z 17011KT 12/12 A2997 RMK A01 T01210121  RH  100%=      5-min Rain = 0
KGO1 060517Z 17014KT 12/12 A2997 RMK A01 T01210121  RH  100%=      5-min Rain = 0
KGO1 060518Z 17014KT 12/12 A2997 RMK A01 T01210121  RH  100%=      5-min Rain = 0
KGO1 060519Z 17014KT 12/12 A2997 RMK A01 T01210121  RH  100%=      5-min Rain = 0
KGO1 060520Z 17015KT 12/12 A2997 RMK A01 T01210121  RH  100%=      5-min Rain = 0
KGO1 060521Z 17014KT 12/12 A2997 RMK A01 T01210121  RH  100%=      5-min Rain = 0
KGO1 060522Z 17013KT 12/12 A2997 RMK A01 T01210121  RH  100%=      5-min Rain = 0
KGO1 060523Z 17013KT 12/12 A2997 RMK A01 T01210121  RH  100%=      5-min Rain = 0
KGO1 060524Z 17014KT 12/12 A2997 RMK A01 T01200120  RH  100%=      5-min Rain = 0
KGO1 060525Z 17012KT 12/12 A2997 RMK A01 T01200120  RH  100%=      5-min Rain = 0
KGO1 060526Z 17013KT 12/12 A2997 RMK A01 T01200120  RH  100%=      5-min Rain = 0
KGO1 060527Z 17013KT 12/12 A2997 RMK A01 T01200120  RH  100%=      5-min Rain = 0
KGO1 060528Z 17012KT 12/12 A2997 RMK A01 T01200120  RH  100%=      5-min Rain = 0
KGO1 060529Z 17012KT 12/12 A2997 RMK A01 T01200120  RH  100%=      5-min Rain = 0
KGO1 060530Z 17014KT 12/12 A2997 RMK A01 T01200120  RH  100%=      5-min Rain = 0
KGO1 060531Z 17012KT 12/12 A2997 RMK A01 T01200120  RH  100%=      5-min Rain = 0
KGO1 060532Z 17010KT 12/12 A2997 RMK A01 T01200120  RH  100%=      5-min Rain = 0
KGO1 060533Z 17011KT M8999/M9999 A2997 RMK A01 T189990199990  RH  016%=      5-min Rain = 0
KGO1 060534Z 17012KT M8999/M9999 A2997 RMK A01 T189990199990  RH  000%=      5-min Rain = 0
KGO1 060535Z 17012KT M8999/M9999 A2997 RMK A01 T189990199990  RH  000%=      5-min Rain = 0
KGO1 060536Z 17012KT M8999/M9999 A2997 RMK A01 T189990199990  RH  000%=      5-min Rain = 0
KGO1 060537Z 17011KT M8999/M9999 A2997 RMK A01 T189990199990  RH  000%=      5-min Rain = 0
KGO1 060538Z 17011KT M8999/M9999 A2997 RMK A01 T189990199990  RH  000%=      5-min Rain = 0
KGO1 060539Z 17012KT M8999/M9999 A2997 RMK A01 T189990199990  RH  000%=      5-min Rain = 0
KGO1 060540Z 17013KT M8999/M9999 A2997 RMK A01 T189990199990  RH  000%=      5-min Rain = 0
KGO1 060541Z 17013KT M8999/M9999 A2997 RMK A01 T189990199990  RH  000%=      5-min Rain = 0
KGO1 060542Z 17012KT M8999/M9999 A2997 RMK A01 T189990199990  RH  000%=      5-min Rain = 0
KGO1 060543Z 17012KT M8999/M9999 A2997 RMK A01 T189990199990  RH  000%=      5-min Rain = 0
KGO1 060544Z 17011KT M8999/M9999 A2997 RMK A01 T189990199990  RH  000%=      5-min Rain = 0
KGO1 060545Z 17012KT M8999/M9999 A2997 RMK A01 T189990199990  RH  000%=      5-min Rain = 0
KGO1 060546Z 16014KT M8999/M9999 A2997 RMK A01 T189990199990  RH  000%=      5-min Rain = 0
KGO1 060547Z 17012KT M8999/M9999 A2997 RMK A01 T189990199990  RH  000%=      5-min Rain = 0
KGO1 060548Z 17013KT M8999/M9999 A2997 RMK A01 T189990199990  RH  000%=      5-min Rain = 0
KGO1 060549Z 17012KT M8999/M9999 A2997 RMK A01 T189990199990  RH  000%=      5-min Rain = 0
KGO1 060550Z 17012KT M8999/M9999 A2997 RMK A01 T189990199990  RH  000%=      5-min Rain = 0
KGO1 060551Z 16013KT M8999/M9999 A2997 RMK A01 T189990199990  RH  000%=      5-min Rain = 0
KGO1 060552Z 17013KT M8999/M9999 A2997 RMK A01 T189990199990  RH  000%=      5-min Rain = 0
KGO1 060553Z 16012KT M8999/M9999 A2997 RMK A01 T189990199990  RH  000%=      5-min Rain = 0
KGO1 060554Z 16011KT M8999/M9999 A2997 RMK A01 T189990199990  RH  000%=      5-min Rain = 0
KGO1 060555Z 16012KT M8999/M9999 A2997 RMK A01 T189990199990  RH  000%=      5-min Rain = 0
KGO1 060556Z 16011KT M8999/M9999 A2997 RMK A01 T189990199990  RH  000%=      5-min Rain = 0
KGO1 060557Z 16011KT M8999/M9999 A2997 RMK A01 T189990199990  RH  000%=      5-min Rain = 0
KGO1 060558Z 16012KT M8999/M9999 A2997 RMK A01 T189990199990  RH  000%=      5-min Rain = 0
KGO1 060559Z 16011KT M8999/M9999 A2997 RMK A01 T189990199990  RH  000%=      5-min Rain = 0
KGO1 060600Z 17012KT M8999/M9999 A2997 RMK A01 T189990199990  RH  000%=      5-min Rain = 0
KGO1 060601Z 17011KT M8999/M9999 A2997 RMK A01 T189990199990  RH  000%=      5-min Rain = 0
KGO1 060602Z 17011KT M8999/M9999 A2997 RMK A01 T189990199990  RH  000%=      5-min Rain = 0
KGO1 060603Z 17011KT M8999/M9999 A2997 RMK A01 T189990199990  RH  000%=      5-min Rain = 0
KGO1 060604Z 17010KT M8999/M9999 A2997 RMK A01 T189990199990  RH  000%=      5-min Rain = 0
KGO1 060605Z 17010KT M8999/M9999 A2997 RMK A01 T189990199990  RH  000%=      5-min Rain = 0
KGO1 060606Z 17010KT M8999/M9999 A2997 RMK A01 T189990199990  RH  000%=      5-min Rain = 0
KGO1 060607Z 17011KT M8999/M9999 A2997 RMK A01 T189990199990  RH  000%=      5-min Rain = 0
KGO1 060608Z 17012KT M8999/M9999 A2997 RMK A01 T189990199990  RH  000%=      5-min Rain = 0
KGO1 060609Z 17012KT M8999/M9999 A2997 RMK A01 T189990199990  RH  000%=      5-min Rain = 0
KGO1 060610Z 17012KT M8999/M9999 A2997 RMK A01 T189990199990  RH  000%=      5-min Rain = 0
KGO1 060611Z 17012KT M8999/M9999 A2997 RMK A01 T189990199990  RH  000%=      5-min Rain = 0
KGO1 060612Z 17011KT M8999/M9999 A2997 RMK A01 T189990199990  RH  000%=      5-min Rain = 0
KGO1 060613Z 17011KT M8999/M9999 A2997 RMK A01 T189990199990  RH  000%=      5-min Rain = 0
KGO1 060614Z 17012KT M8999/M9999 A2997 RMK A01 T189990199990  RH  000%=      5-min Rain = 0
KGO1 060615Z 17011KT M8999/M9999 A2997 RMK A01 T189990199990  RH  000%=      5-min Rain = 0
KGO1 060616Z 17011KT M8999/M9999 A2997 RMK A01 T189990199990  RH  000%=      5-min Rain = 0
KGO1 060617Z 17011KT M8999/M9999 A2997 RMK A01 T189990199990  RH  000%=      5-min Rain = 0
KGO1 060618Z 17011KT M8999/M9999 A2997 RMK A01 T189990199990  RH  000%=      5-min Rain = 0
KGO1 060619Z 17012KT M8999/M9999 A2997 RMK A01 T189990199990  RH  000%=      5-min Rain = 0
KGO1 060620Z 17012KT M8999/M9999 A2997 RMK A01 T189990199990  RH  000%=      5-min Rain = 0
KGO1 060621Z 17010KT M8999/M9999 A2997 RMK A01 T189990199990  RH  000%=      5-min Rain = 0
KGO1 060622Z 17010KT M8999/M9999 A2997 RMK A01 T189990199990  RH  000%=      5-min Rain = 0
KGO1 060623Z 17011KT M8999/M9999 A2997 RMK A01 T189990199990  RH  000%=      5-min Rain = 0
KGO1 060624Z 17011KT M8999/M9999 A2997 RMK A01 T189990199990  RH  000%=      5-min Rain = 0
KGO1 060625Z 17012KT M8999/M9999 A2997 RMK A01 T189990199990  RH  000%=      5-min Rain = 0
KGO1 060626Z 17010KT M8999/M9999 A2997 RMK A01 T189990199990  RH  000%=      5-min Rain = 0
KGO1 060627Z 17012KT M8999/M9999 A2997 RMK A01 T189990199990  RH  000%=      5-min Rain = 0
KGO1 060628Z 17012KT M8999/M9999 A2997 RMK A01 T189990199990  RH  000%=      5-min Rain = 0
KGO1 060629Z 17012KT M8999/M9999 A2997 RMK A01 T189990199990  RH  000%=      5-min Rain = 0
KGO1 060630Z 17011KT M8999/M9999 A2997 RMK A01 T189990199990  RH  000%=      5-min Rain = 0
KGO1 060631Z 17010KT M8999/M9999 A2997 RMK A01 T189990199990  RH  000%=      5-min Rain = 0
KGO1 060632Z 17011KT M8999/M9999 A2997 RMK A01 T189990199990  RH  000%=      5-min Rain = 0
KGO1 060633Z 17011KT M8999/M9999 A2997 RMK A01 T189990199990  RH  000%=      5-min Rain = 0
KGO1 060634Z 17012KT M8999/M9999 A2997 RMK A01 T189990199990  RH  000%=      5-min Rain = 0
KGO1 060635Z 17012KT M8999/M9999 A2997 RMK A01 T189990199990  RH  000%=      5-min Rain = 0
KGO1 060636Z 17011KT M8999/M9999 A2997 RMK A01 T189990199990  RH  000%=      5-min Rain = 0
KGO1 060637Z 17010KT M8999/M9999 A2997 RMK A01 T189990199990  RH  000%=      5-min Rain = 0
KGO1 060638Z 17011KT M8999/M9999 A2997 RMK A01 T189990199990  RH  000%=      5-min Rain = 0
KGO1 060639Z 18012KT M8999/M9999 A2997 RMK A01 T189990199990  RH  000%=      5-min Rain = 0
KGO1 060640Z 17012KT M8999/M9999 A2997 RMK A01 T189990199990  RH  000%=      5-min Rain = 0
KGO1 060641Z 18011KT M8999/M9999 A2997 RMK A01 T189990199990  RH  000%=      5-min Rain = 0
KGO1 060642Z 18011KT M8999/M9999 A2997 RMK A01 T189990199990  RH  000%=      5-min Rain = 0
KGO1 060643Z 17011KT M8999/M9999 A2997 RMK A01 T189990199990  RH  000%=      5-min Rain = 0
KGO1 060644Z 17012KT M8999/M9999 A2997 RMK A01 T189990199990  RH  000%=      5-min Rain = 0
KGO1 060645Z 18011KT M8999/M9999 A2997 RMK A01 T189990199990  RH  000%=      5-min Rain = 0
KGO1 060646Z 18011KT M8999/M9999 A2997 RMK A01 T189990199990  RH  000%=      5-min Rain = 0
KGO1 060647Z 18012KT M8999/M9999 A2997 RMK A01 T189990199990  RH  000%=      5-min Rain = 0
KGO1 060648Z 18011KT M8999/M9999 A2997 RMK A01 T189990199990  RH  000%=      5-min Rain = 0
KGO1 060649Z 18011KT M8999/M9999 A2996 RMK A01 T189990199990  RH  000%=      5-min Rain = 0
KGO1 060650Z 18011KT M8999/M9999 A2996 RMK A01 T189990199990  RH  000%=      5-min Rain = 0
KGO1 060651Z 17011KT M8999/M9999 A2996 RMK A01 T189990199990  RH  000%=      5-min Rain = 0
KGO1 060652Z 18012KT M8999/M9999 A2996 RMK A01 T189990199990  RH  000%=      5-min Rain = 0
KGO1 060653Z 18011KT M8999/M9999 A2996 RMK A01 T189990199990  RH  000%=      5-min Rain = 0
KGO1 060654Z 18012KT M8999/M9999 A2996 RMK A01 T189990199990  RH  000%=      5-min Rain = 0
KGO1 060655Z 18012KT M8999/M9999 A2996 RMK A01 T189990199990  RH  000%=      5-min Rain = 0
KGO1 060656Z 18011KT M8999/M9999 A2996 RMK A01 T189990199990  RH  000%=      5-min Rain = 0
KGO1 060657Z 17012KT M8999/M9999 A2996 RMK A01 T189990199990  RH  000%=      5-min Rain = 0
KGO1 060658Z 18012KT M8999/M9999 A2996 RMK A01 T189990199990  RH  000%=      5-min Rain = 0
KGO1 060659Z 18010KT M8999/M9999 A2996 RMK A01 T189990199990  RH  000%=      5-min Rain = 0
KGO1 060700Z 18010KT M8999/M9999 A2996 RMK A01 T189990199990  RH  000%=      5-min Rain = 0
KGO1 060701Z 18011KT M8999/M9999 A2996 RMK A01 T189990199990  RH  000%=      5-min Rain = 0
KGO1 060702Z 18011KT M8999/M9999 A2996 RMK A01 T189990199990  RH  000%=      5-min Rain = 0
KGO1 060703Z 18012KT M8999/M9999 A2996 RMK A01 T189990199990  RH  000%=      5-min Rain = 0
KGO1 060704Z 18011KT M8999/M9999 A2996 RMK A01 T189990199990  RH  000%=      5-min Rain = 0
KGO1 060705Z 18011KT M8999/M9999 A2996 RMK A01 T189990199990  RH  000%=      5-min Rain = 0
KGO1 060706Z 18011KT M8999/M9999 A2996 RMK A01 T189990199990  RH  000%=      5-min Rain = 0
KGO1 060707Z 17011KT M8999/M9999 A2996 RMK A01 T189990199990  RH  000%=      5-min Rain = 0
KGO1 060708Z 18011KT M8999/M9999 A2996 RMK A01 T189990199990  RH  000%=      5-min Rain = 0
KGO1 060709Z 18011KT M8999/M9999 A2996 RMK A01 T189990199990  RH  000%=      5-min Rain = 0
KGO1 060710Z 18011KT M8999/M9999 A2996 RMK A01 T189990199990  RH  000%=      5-min Rain = 0
KGO1 060711Z 18011KT M8999/M9999 A2996 RMK A01 T189990199990  RH  000%=      5-min Rain = 0
KGO1 060712Z 17010KT M8999/M9999 A2996 RMK A01 T189990199990  RH  000%=      5-min Rain = 0
KGO1 060713Z 18010KT M8999/M9999 A2996 RMK A01 T189990199990  RH  000%=      5-min Rain = 0
KGO1 060714Z 17010KT M8999/M9999 A2996 RMK A01 T189990199990  RH  000%=      5-min Rain = 0
KGO1 060715Z 17010KT M8999/M9999 A2996 RMK A01 T189990199990  RH  000%=      5-min Rain = 0
KGO1 060716Z 17009KT M8999/M9999 A2996 RMK A01 T189990199990  RH  000%=      5-min Rain = 0
KGO1 060717Z 17010KT M8999/M9999 A2996 RMK A01 T189990199990  RH  000%=      5-min Rain = 0
KGO1 060718Z 17011KT M8999/M9999 A2996 RMK A01 T189990199990  RH  000%=      5-min Rain = 0
KGO1 060719Z 17009KT M8999/M9999 A2996 RMK A01 T189990199990  RH  000%=      5-min Rain = 0
KGO1 060720Z 17009KT M8999/M9999 A2996 RMK A01 T189990199990  RH  000%=      5-min Rain = 0
KGO1 060721Z 17009KT M8999/M9999 A2995 RMK A01 T189990199990  RH  000%=      5-min Rain = 0
KGO1 060722Z 17009KT M8999/M9999 A2995 RMK A01 T189990199990  RH  000%=      5-min Rain = 0
KGO1 060723Z 17011KT M8999/M9999 A2995 RMK A01 T189990199990  RH  000%=      5-min Rain = 0
KGO1 060724Z 16009KT M8999/M9999 A2996 RMK A01 T189990199990  RH  000%=      5-min Rain = 0
KGO1 060725Z 17010KT M8999/M9999 A2996 RMK A01 T189990199990  RH  000%=      5-min Rain = 0
KGO1 060726Z 17010KT M8999/M9999 A2996 RMK A01 T189990199990  RH  000%=      5-min Rain = 0
KGO1 060727Z 17010KT M8999/M9999 A2996 RMK A01 T189990199990  RH  000%=      5-min Rain = 0
KGO1 060728Z 17010KT M8999/M9999 A2996 RMK A01 T189990199990  RH  000%=      5-min Rain = 0
KGO1 060729Z 17009KT M8999/M9999 A2996 RMK A01 T189990199990  RH  000%=      5-min Rain = 0
KGO1 060730Z 17009KT M8999/M9999 A2996 RMK A01 T189990199990  RH  000%=      5-min Rain = 0
KGO1 060731Z 17010KT M8999/M9999 A2996 RMK A01 T189990199990  RH  000%=      5-min Rain = 0
KGO1 060732Z 17010KT M8999/M9999 A2996 RMK A01 T189990199990  RH  000%=      5-min Rain = 0
KGO1 060733Z 17009KT M8999/M9999 A2995 RMK A01 T189990199990  RH  000%=      5-min Rain = 0
KGO1 060734Z 17009KT M8999/M9999 A2995 RMK A01 T189990199990  RH  000%=      5-min Rain = 0
KGO1 060735Z 16010KT M8999/M9999 A2995 RMK A01 T189990199990  RH  000%=      5-min Rain = 0
KGO1 060736Z 17011KT M8999/M9999 A2995 RMK A01 T189990199990  RH  000%=      5-min Rain = 0
KGO1 060737Z 17009KT M8999/M9999 A2995 RMK A01 T189990199990  RH  000%=      5-min Rain = 0
KGO1 060738Z 17009KT M8999/M9999 A2995 RMK A01 T189990199990  RH  000%=      5-min Rain = 0
KGO1 060739Z 17010KT M8999/M9999 A2995 RMK A01 T189990199990  RH  000%=      5-min Rain = 0
KGO1 060740Z 17009KT M8999/M9999 A2995 RMK A01 T189990199990  RH  000%=      5-min Rain = 0
KGO1 060741Z 17010KT M8999/M9999 A2995 RMK A01 T189990199990  RH  000%=      5-min Rain = 0
KGO1 060742Z 17009KT M8999/M9999 A2995 RMK A01 T189990199990  RH  000%=      5-min Rain = 0
KGO1 060743Z 17010KT M8999/M9999 A2995 RMK A01 T189990199990  RH  000%=      5-min Rain = 0
KGO1 060744Z 17009KT M8999/M9999 A2995 RMK A01 T189990199990  RH  000%=      5-min Rain = 0
KGO1 060745Z 17010KT M8999/M9999 A2995 RMK A01 T189990199990  RH  000%=      5-min Rain = 0
KGO1 060746Z 17010KT M8999/M9999 A2995 RMK A01 T189990199990  RH  000%=      5-min Rain = 0
KGO1 060747Z 17009KT M8999/M9999 A2995 RMK A01 T189990199990  RH  000%=      5-min Rain = 0
KGO1 060748Z 17009KT M8999/M9999 A2995 RMK A01 T189990199990  RH  000%=      5-min Rain = 0
KGO1 060749Z 17009KT M8999/M9999 A2995 RMK A01 T189990199990  RH  000%=      5-min Rain = 0
KGO1 060750Z 17010KT M8999/M9999 A2995 RMK A01 T189990199990  RH  000%=      5-min Rain = 0
KGO1 060751Z 17008KT M8999/M9999 A2995 RMK A01 T189990199990  RH  000%=      5-min Rain = 0
KGO1 060752Z 17009KT M8999/M9999 A2995 RMK A01 T189990199990  RH  000%=      5-min Rain = 0
KGO1 060753Z 16009KT M8999/M9999 A2995 RMK A01 T189990199990  RH  000%=      5-min Rain = 0
KGO1 060754Z 17010KT M8999/M9999 A2995 RMK A01 T189990199990  RH  000%=      5-min Rain = 0
KGO1 060755Z 17009KT M8999/M9999 A2995 RMK A01 T189990199990  RH  000%=      5-min Rain = 0
KGO1 060756Z 17009KT M8999/M9999 A2995 RMK A01 T189990199990  RH  000%=      5-min Rain = 0
KGO1 060757Z 16010KT M8999/M9999 A2995 RMK A01 T189990199990  RH  000%=      5-min Rain = 0
KGO1 060758Z 17010KT M8999/M9999 A2995 RMK A01 T189990199990  RH  000%=      5-min Rain = 0
KGO1 060759Z 16009KT M8999/M9999 A2995 RMK A01 T189990199990  RH  000%=      5-min Rain = 0
KGO1 060800Z 16009KT M8999/M9999 A2995 RMK A01 T189990199990  RH  000%=      5-min Rain = 0
KGO1 060801Z 17009KT M8999/M9999 A2994 RMK A01 T189990199990  RH  000%=      5-min Rain = 0
KGO1 060802Z 17009KT M8999/M9999 A2994 RMK A01 T189990199990  RH  000%=      5-min Rain = 0
KGO1 060803Z 17008KT M8999/M9999 A2994 RMK A01 T189990199990  RH  000%=      5-min Rain = 0
KGO1 060804Z 17009KT M8999/M9999 A2994 RMK A01 T189990199990  RH  000%=      5-min Rain = 0
KGO1 060805Z 16010KT M8999/M9999 A2994 RMK A01 T189990199990  RH  000%=      5-min Rain = 0
KGO1 060806Z 17009KT M8999/M9999 A2994 RMK A01 T189990199990  RH  000%=      5-min Rain = 0
KGO1 060807Z 17010KT M8999/M9999 A2994 RMK A01 T189990199990  RH  000%=      5-min Rain = 0
KGO1 060808Z 17010KT M8999/M9999 A2994 RMK A01 T189990199990  RH  000%=      5-min Rain = 0
KGO1 060809Z 17009KT M8999/M9999 A2995 RMK A01 T189990199990  RH  000%=      5-min Rain = 0
KGO1 060810Z 17009KT M8999/M9999 A2995 RMK A01 T189990199990  RH  000%=      5-min Rain = 0
KGO1 060811Z 17010KT M8999/M9999 A2995 RMK A01 T189990199990  RH  000%=      5-min Rain = 0
KGO1 060812Z 17010KT M8999/M9999 A2995 RMK A01 T189990199990  RH  000%=      5-min Rain = 0
KGO1 060813Z 17008KT M8999/M9999 A2995 RMK A01 T189990199990  RH  000%=      5-min Rain = 0
KGO1 060814Z 17008KT M8999/M9999 A2995 RMK A01 T189990199990  RH  000%=      5-min Rain = 0
KGO1 060815Z 16009KT M8999/M9999 A2995 RMK A01 T189990199990  RH  000%=      5-min Rain = 0
KGO1 060816Z 16008KT M8999/M9999 A2994 RMK A01 T189990199990  RH  000%=      5-min Rain = 0
KGO1 060817Z 16007KT M8999/M9999 A2994 RMK A01 T189990199990  RH  000%=      5-min Rain = 0
KGO1 060818Z 17010KT M8999/M9999 A2994 RMK A01 T189990199990  RH  000%=      5-min Rain = 0
KGO1 060819Z 16009KT M8999/M9999 A2994 RMK A01 T189990199990  RH  000%=      5-min Rain = 0
KGO1 060820Z 16009KT M8999/M9999 A2994 RMK A01 T189990199990  RH  000%=      5-min Rain = 0
KGO1 060821Z 17009KT M8999/M9999 A2994 RMK A01 T189990199990  RH  000%=      5-min Rain = 0
KGO1 060822Z 17008KT M8999/M9999 A2994 RMK A01 T189990199990  RH  000%=      5-min Rain = 0
KGO1 060823Z 16010KT M8999/M9999 A2994 RMK A01 T189990199990  RH  000%=      5-min Rain = 0
KGO1 060824Z 16009KT M8999/M9999 A2994 RMK A01 T189990199990  RH  000%=      5-min Rain = 0
KGO1 060825Z 16010KT M8999/M9999 A2994 RMK A01 T189990199990  RH  000%=      5-min Rain = 0
KGO1 060826Z 16008KT M8999/M9999 A2994 RMK A01 T189990199990  RH  000%=      5-min Rain = 0
KGO1 060827Z 16010KT M8999/M9999 A2994 RMK A01 T189990199990  RH  000%=      5-min Rain = 0
KGO1 060828Z 16010KT M8999/M9999 A2994 RMK A01 T189990199990  RH  000%=      5-min Rain = 0
KGO1 060829Z 16009KT M8999/M9999 A2994 RMK A01 T189990199990  RH  000%=      5-min Rain = 0
KGO1 060830Z 16010KT M8999/M9999 A2994 RMK A01 T189990199990  RH  000%=      5-min Rain = 0
KGO1 060831Z 16010KT M8999/M9999 A2994 RMK A01 T189990199990  RH  000%=      5-min Rain = 0
KGO1 060832Z 17008KT M8999/M9999 A2994 RMK A01 T189990199990  RH  000%=      5-min Rain = 0
KGO1 060833Z 16008KT M8999/M9999 A2994 RMK A01 T189990199990  RH  000%=      5-min Rain = 0
KGO1 060834Z 16010KT M8999/M9999 A2994 RMK A01 T189990199990  RH  000%=      5-min Rain = 0
KGO1 060835Z 16011KT M8999/M9999 A2994 RMK A01 T189990199990  RH  000%=      5-min Rain = 0
KGO1 060836Z 16010KT M8999/M9999 A2994 RMK A01 T189990199990  RH  000%=      5-min Rain = 0
KGO1 060837Z 16009KT M8999/M9999 A2994 RMK A01 T189990199990  RH  000%=      5-min Rain = 0
KGO1 060838Z 16009KT M8999/M9999 A2994 RMK A01 T189990199990  RH  000%=      5-min Rain = 0
KGO1 060839Z 16010KT M8999/M9999 A2994 RMK A01 T189990199990  RH  000%=      5-min Rain = 0
KGO1 060840Z 15010KT M8999/M9999 A2994 RMK A01 T189990199990  RH  000%=      5-min Rain = 0
KGO1 060841Z 16009KT M8999/M9999 A2994 RMK A01 T189990199990  RH  000%=      5-min Rain = 0
KGO1 060842Z 16011KT M8999/M9999 A2994 RMK A01 T189990199990  RH  000%=      5-min Rain = 0
KGO1 060843Z 16011KT M8999/M9999 A2994 RMK A01 T189990199990  RH  000%=      5-min Rain = 0
KGO1 060844Z 16010KT M8999/M9999 A2993 RMK A01 T189990199990  RH  000%=      5-min Rain = 0
KGO1 060845Z 16010KT M8999/M9999 A2993 RMK A01 T189990199990  RH  000%=      5-min Rain = 0
KGO1 060846Z 16009KT M8999/M9999 A2993 RMK A01 T189990199990  RH  000%=      5-min Rain = 0
KGO1 060847Z 16008KT M8999/M9999 A2993 RMK A01 T189990199990  RH  000%=      5-min Rain = 0
KGO1 060848Z 16009KT M8999/M9999 A2993 RMK A01 T189990199990  RH  000%=      5-min Rain = 0
KGO1 060849Z 16008KT M8999/M9999 A2993 RMK A01 T189990199990  RH  000%=      5-min Rain = 0
KGO1 060850Z 16008KT M8999/M9999 A2993 RMK A01 T189990199990  RH  000%=      5-min Rain = 0
KGO1 060851Z 16008KT M8999/M9999 A2993 RMK A01 T189990199990  RH  000%=      5-min Rain = 0
KGO1 060852Z 16008KT M8999/M9999 A2993 RMK A01 T189990199990  RH  000%=      5-min Rain = 0
KGO1 060853Z 16008KT M8999/M9999 A2993 RMK A01 T189990199990  RH  000%=      5-min Rain = 0
KGO1 060854Z 16008KT M8999/M9999 A2994 RMK A01 T189990199990  RH  000%=      5-min Rain = 0
KGO1 060855Z 16007KT M8999/M9999 A2994 RMK A01 T189990199990  RH  000%=      5-min Rain = 0
KGO1 060856Z 16007KT M8999/M9999 A2994 RMK A01 T189990199990  RH  000%=      5-min Rain = 0
KGO1 060857Z 16007KT M8999/M9999 A2994 RMK A01 T189990199990  RH  000%=      5-min Rain = 0
KGO1 060858Z 17007KT M8999/M9999 A2994 RMK A01 T189990199990  RH  000%=      5-min Rain = 0
KGO1 060859Z 17007KT M8999/M9999 A2994 RMK A01 T189990199990  RH  000%=      5-min Rain = 0
KGO1 060900Z 17007KT M8999/M9999 A2993 RMK A01 T189990199990  RH  000%=      5-min Rain = 0
KGO1 060901Z 17006KT M8999/M9999 A2993 RMK A01 T189990199990  RH  000%=      5-min Rain = 0
KGO1 060902Z 16006KT M8999/M9999 A2993 RMK A01 T189990199990  RH  000%=      5-min Rain = 0
KGO1 060903Z 16007KT M8999/M9999 A2993 RMK A01 T189990199990  RH  000%=      5-min Rain = 0
KGO1 060904Z 16009KT M8999/M9999 A2993 RMK A01 T189990199990  RH  000%=      5-min Rain = 0
KGO1 060905Z 16008KT M8999/M9999 A2993 RMK A01 T189990199990  RH  000%=      5-min Rain = 0
KGO1 060906Z 16007KT M8999/M9999 A2993 RMK A01 T189990199990  RH  000%=      5-min Rain = 0
KGO1 060907Z 16008KT M8999/M9999 A2993 RMK A01 T189990199990  RH  000%=      5-min Rain = 0
KGO1 060908Z 16008KT M8999/M9999 A2993 RMK A01 T189990199990  RH  000%=      5-min Rain = 0
KGO1 060909Z 16007KT M8999/M9999 A2993 RMK A01 T189990199990  RH  000%=      5-min Rain = 0
KGO1 060910Z 16007KT M8999/M9999 A2993 RMK A01 T189990199990  RH  000%=      5-min Rain = 0
KGO1 060911Z 16008KT M8999/M9999 A2992 RMK A01 T189990199990  RH  000%=      5-min Rain = 0
KGO1 060912Z 15008KT M8999/M9999 A2992 RMK A01 T189990199990  RH  000%=      5-min Rain = 0
KGO1 060913Z 15009KT M8999/M9999 A2992 RMK A01 T189990199990  RH  000%=      5-min Rain = 0
KGO1 060914Z 16009KT M8999/M9999 A2992 RMK A01 T189990199990  RH  000%=      5-min Rain = 0
KGO1 060915Z 16010KT M8999/M9999 A2992 RMK A01 T189990199990  RH  000%=      5-min Rain = 0
KGO1 060916Z 16009KT M8999/M9999 A2992 RMK A01 T189990199990  RH  000%=      5-min Rain = 0
KGO1 060917Z 16010KT M8999/M9999 A2992 RMK A01 T189990199990  RH  000%=      5-min Rain = 0
KGO1 060918Z 16009KT M8999/M9999 A2992 RMK A01 T189990199990  RH  000%=      5-min Rain = 0
KGO1 060919Z 16009KT M8999/M9999 A2992 RMK A01 T189990199990  RH  000%=      5-min Rain = 0
KGO1 060920Z 16009KT M8999/M9999 A2992 RMK A01 T189990199990  RH  000%=      5-min Rain = 0
KGO1 060921Z 16009KT M8999/M9999 A2992 RMK A01 T189990199990  RH  000%=      5-min Rain = 0
KGO1 060922Z 16008KT M8999/M9999 A2992 RMK A01 T189990199990  RH  000%=      5-min Rain = 0
KGO1 060923Z 16008KT M8999/M9999 A2992 RMK A01 T189990199990  RH  000%=      5-min Rain = 0
KGO1 060924Z 16010KT M8999/M9999 A2992 RMK A01 T189990199990  RH  000%=      5-min Rain = 0
KGO1 060925Z 16009KT M8999/M9999 A2992 RMK A01 T189990199990  RH  000%=      5-min Rain = 0
KGO1 060926Z 16009KT M8999/M9999 A2992 RMK A01 T189990199990  RH  000%=      5-min Rain = 0
KGO1 060927Z 16009KT M8999/M9999 A2992 RMK A01 T189990199990  RH  000%=      5-min Rain = 0
KGO1 060928Z 16008KT M8999/M9999 A2992 RMK A01 T189990199990  RH  000%=      5-min Rain = 0
KGO1 060929Z 16008KT M8999/M9999 A2992 RMK A01 T189990199990  RH  000%=      5-min Rain = 0
KGO1 060930Z 16008KT M8999/M9999 A2992 RMK A01 T189990199990  RH  000%=      5-min Rain = 0
KGO1 060931Z 16007KT M8999/M9999 A2992 RMK A01 T189990199990  RH  000%=      5-min Rain = 0
KGO1 060932Z 16007KT M8999/M9999 A2992 RMK A01 T189990199990  RH  000%=      5-min Rain = 0
KGO1 060933Z 16007KT M8999/M9999 A2992 RMK A01 T189990199990  RH  000%=      5-min Rain = 0
KGO1 060934Z 16007KT M8999/M9999 A2992 RMK A01 T189990199990  RH  000%=      5-min Rain = 0
KGO1 060935Z 16007KT M8999/M9999 A2992 RMK A01 T189990199990  RH  000%=      5-min Rain = 0
KGO1 060936Z 16007KT M8999/M9999 A2992 RMK A01 T189990199990  RH  000%=      5-min Rain = 0
KGO1 060937Z 16007KT M8999/M9999 A2992 RMK A01 T189990199990  RH  000%=      5-min Rain = 0
KGO1 060938Z 16006KT M8999/M9999 A2992 RMK A01 T189990199990  RH  000%=      5-min Rain = 0
KGO1 060939Z 16008KT M8999/M9999 A2992 RMK A01 T189990199990  RH  000%=      5-min Rain = 0
KGO1 060940Z 16007KT M8999/M9999 A2992 RMK A01 T189990199990  RH  000%=      5-min Rain = 0
KGO1 060941Z 16007KT M8999/M9999 A2992 RMK A01 T189990199990  RH  000%=      5-min Rain = 0
KGO1 060942Z 16006KT M8999/M9999 A2992 RMK A01 T189990199990  RH  000%=      5-min Rain = 0
KGO1 060943Z 16006KT M8999/M9999 A2992 RMK A01 T189990199990  RH  000%=      5-min Rain = 0
KGO1 060944Z 16007KT M8999/M9999 A2992 RMK A01 T189990199990  RH  000%=      5-min Rain = 0
KGO1 060945Z 16007KT M8999/M9999 A2993 RMK A01 T189990199990  RH  000%=      5-min Rain = 0
KGO1 060946Z 16007KT M8999/M9999 A2993 RMK A01 T189990199990  RH  000%=      5-min Rain = 0
KGO1 060947Z 16006KT M8999/M9999 A2993 RMK A01 T189990199990  RH  000%=      5-min Rain = 0
KGO1 060948Z 16007KT M8999/M9999 A2993 RMK A01 T189990199990  RH  000%=      5-min Rain = 0
KGO1 060949Z 16007KT M8999/M9999 A2993 RMK A01 T189990199990  RH  000%=      5-min Rain = 0
KGO1 060950Z 16006KT M8999/M9999 A2992 RMK A01 T189990199990  RH  000%=      5-min Rain = 0
KGO1 060951Z 16007KT M8999/M9999 A2992 RMK A01 T189990199990  RH  000%=      5-min Rain = 0
KGO1 060952Z 16007KT M8999/M9999 A2992 RMK A01 T189990199990  RH  000%=      5-min Rain = 0
KGO1 060953Z 16006KT M8999/M9999 A2992 RMK A01 T189990199990  RH  000%=      5-min Rain = 0
KGO1 060954Z 16006KT M8999/M9999 A2992 RMK A01 T189990199990  RH  000%=      5-min Rain = 0
KGO1 060955Z 16006KT M8999/M9999 A2992 RMK A01 T189990199990  RH  000%=      5-min Rain = 0
KGO1 060956Z 16006KT M8999/M9999 A2992 RMK A01 T189990199990  RH  000%=      5-min Rain = 0
KGO1 060957Z 16007KT M8999/M9999 A2992 RMK A01 T189990199990  RH  000%=      5-min Rain = 0
KGO1 060958Z 16006KT M8999/M9999 A2992 RMK A01 T189990199990  RH  000%=      5-min Rain = 0
KGO1 060959Z 17006KT M8999/M9999 A2992 RMK A01 T189990199990  RH  000%=      5-min Rain = 0
KGO1 061000Z 17006KT M8999/M9999 A2992 RMK A01 T189990199990  RH  000%=      5-min Rain = 0
KGO1 061001Z 17007KT M8999/M9999 A2992 RMK A01 T189990199990  RH  000%=      5-min Rain = 0
KGO1 061002Z 17007KT M8999/M9999 A2992 RMK A01 T189990199990  RH  000%=      5-min Rain = 0
KGO1 061003Z 17007KT M8999/M9999 A2992 RMK A01 T189990199990  RH  000%=      5-min Rain = 0
KGO1 061004Z 18007KT M8999/M9999 A2992 RMK A01 T189990199990  RH  000%=      5-min Rain = 0
KGO1 061005Z 18008KT M8999/M9999 A2992 RMK A01 T189990199990  RH  000%=      5-min Rain = 0
KGO1 061006Z 18008KT M8999/M9999 A2992 RMK A01 T189990199990  RH  000%=      5-min Rain = 0
KGO1 061007Z 18007KT M8999/M9999 A2992 RMK A01 T189990199990  RH  000%=      5-min Rain = 0
KGO1 061008Z 18008KT M8999/M9999 A2992 RMK A01 T189990199990  RH  000%=      5-min Rain = 0
KGO1 061009Z 18008KT M8999/M9999 A2992 RMK A01 T189990199990  RH  000%=      5-min Rain = 0
KGO1 061010Z 18008KT M8999/M9999 A2992 RMK A01 T189990199990  RH  000%=      5-min Rain = 0
KGO1 061011Z 18008KT M8999/M9999 A2992 RMK A01 T189990199990  RH  000%=      5-min Rain = 0
KGO1 061012Z 17009KT M8999/M9999 A2992 RMK A01 T189990199990  RH  000%=      5-min Rain = 0
KGO1 061013Z 17009KT M8999/M9999 A2992 RMK A01 T189990199990  RH  000%=      5-min Rain = 0
KGO1 061014Z 17008KT M8999/M9999 A2992 RMK A01 T189990199990  RH  000%=      5-min Rain = 0
KGO1 061015Z 17009KT M8999/M9999 A2992 RMK A01 T189990199990  RH  000%=      5-min Rain = 0
KGO1 061016Z 17009KT M8999/M9999 A2992 RMK A01 T189990199990  RH  000%=      5-min Rain = 0
KGO1 061017Z 17009KT M8999/M9999 A2992 RMK A01 T189990199990  RH  000%=      5-min Rain = 0
KGO1 061018Z 17008KT M8999/M9999 A2992 RMK A01 T189990199990  RH  000%=      5-min Rain = 0
KGO1 061019Z 17009KT M8999/M9999 A2992 RMK A01 T189990199990  RH  000%=      5-min Rain = 0
KGO1 061020Z 17009KT M8999/M9999 A2992 RMK A01 T189990199990  RH  000%=      5-min Rain = 0
KGO1 061021Z 17010KT M8999/M9999 A2992 RMK A01 T189990199990  RH  000%=      5-min Rain = 0
KGO1 061022Z 17009KT M8999/M9999 A2992 RMK A01 T189990199990  RH  000%=      5-min Rain = 0
KGO1 061023Z 17009KT M8999/M9999 A2992 RMK A01 T189990199990  RH  000%=      5-min Rain = 0
KGO1 061024Z 17009KT M8999/M9999 A2992 RMK A01 T189990199990  RH  000%=      5-min Rain = 0
KGO1 061025Z 17009KT M8999/M9999 A2992 RMK A01 T189990199990  RH  000%=      5-min Rain = 0
KGO1 061026Z 17009KT M8999/M9999 A2992 RMK A01 T189990199990  RH  000%=      5-min Rain = 0
KGO1 061027Z 18008KT M8999/M9999 A2992 RMK A01 T189990199990  RH  000%=      5-min Rain = 0
KGO1 061028Z 17008KT M8999/M9999 A2992 RMK A01 T189990199990  RH  000%=      5-min Rain = 0
KGO1 061029Z 17008KT M8999/M9999 A2992 RMK A01 T189990199990  RH  000%=      5-min Rain = 0
KGO1 061030Z 17008KT M8999/M9999 A2992 RMK A01 T189990199990  RH  000%=      5-min Rain = 0
KGO1 061031Z 17008KT M8999/M9999 A2992 RMK A01 T189990199990  RH  000%=      5-min Rain = 0
KGO1 061032Z 17008KT M8999/M9999 A2992 RMK A01 T189990199990  RH  000%=      5-min Rain = 0
KGO1 061033Z 17007KT M8999/M9999 A2992 RMK A01 T189990199990  RH  000%=      5-min Rain = 0
KGO1 061034Z 17006KT M8999/M9999 A2992 RMK A01 T189990199990  RH  000%=      5-min Rain = 0
KGO1 061035Z 16007KT M8999/M9999 A2992 RMK A01 T189990199990  RH  000%=      5-min Rain = 0
KGO1 061036Z 17007KT M8999/M9999 A2992 RMK A01 T189990199990  RH  000%=      5-min Rain = 0
KGO1 061037Z 17007KT M8999/M9999 A2992 RMK A01 T189990199990  RH  000%=      5-min Rain = 0
KGO1 061038Z 16006KT M8999/M9999 A2992 RMK A01 T189990199990  RH  000%=      5-min Rain = 0
KGO1 061039Z 16007KT M8999/M9999 A2992 RMK A01 T189990199990  RH  000%=      5-min Rain = 0
KGO1 061040Z 17009KT M8999/M9999 A2992 RMK A01 T189990199990  RH  000%=      5-min Rain = 0
KGO1 061041Z 18008KT M8999/M9999 A2992 RMK A01 T189990199990  RH  000%=      5-min Rain = 0
KGO1 061042Z 18007KT M8999/M9999 A2992 RMK A01 T189990199990  RH  000%=      5-min Rain = 0
KGO1 061043Z 18006KT M8999/M9999 A2992 RMK A01 T189990199990  RH  000%=      5-min Rain = 0
KGO1 061044Z 18006KT M8999/M9999 A2992 RMK A01 T189990199990  RH  000%=      5-min Rain = 0
KGO1 061045Z 17007KT M8999/M9999 A2992 RMK A01 T189990199990  RH  000%=      5-min Rain = 0
KGO1 061046Z 17006KT M8999/M9999 A2992 RMK A01 T189990199990  RH  000%=      5-min Rain = 0
KGO1 061047Z 17006KT M8999/M9999 A2992 RMK A01 T189990199990  RH  000%=      5-min Rain = 0
KGO1 061048Z 18007KT M8999/M9999 A2992 RMK A01 T189990199990  RH  000%=      5-min Rain = 0
KGO1 061049Z 17006KT M8999/M9999 A2992 RMK A01 T189990199990  RH  000%=      5-min Rain = 0
KGO1 061050Z 18007KT M8999/M9999 A2992 RMK A01 T189990199990  RH  000%=      5-min Rain = 0
KGO1 061051Z 17007KT M8999/M9999 A2992 RMK A01 T189990199990  RH  000%=      5-min Rain = 0
KGO1 061052Z 18007KT M8999/M9999 A2992 RMK A01 T189990199990  RH  000%=      5-min Rain = 0
KGO1 061053Z 18006KT M8999/M9999 A2992 RMK A01 T189990199990  RH  000%=      5-min Rain = 0
KGO1 061054Z 17006KT M8999/M9999 A2992 RMK A01 T189990199990  RH  000%=      5-min Rain = 0
KGO1 061055Z 17007KT M8999/M9999 A2992 RMK A01 T189990199990  RH  000%=      5-min Rain = 0
KGO1 061056Z 18006KT M8999/M9999 A2992 RMK A01 T189990199990  RH  000%=      5-min Rain = 0
KGO1 061057Z 18006KT M8999/M9999 A2992 RMK A01 T189990199990  RH  000%=      5-min Rain = 0
KGO1 061058Z 18006KT M8999/M9999 A2992 RMK A01 T189990199990  RH  000%=      5-min Rain = 0
KGO1 061059Z 19005KT M8999/M9999 A2992 RMK A01 T189990199990  RH  000%=      5-min Rain = 0
KGO1 061100Z 20006KT M8999/M9999 A2992 RMK A01 T189990199990  RH  000%=      5-min Rain = 0
KGO1 061101Z 20005KT M8999/M9999 A2992 RMK A01 T189990199990  RH  000%=      5-min Rain = 0
KGO1 061102Z 19005KT M8999/M9999 A2992 RMK A01 T189990199990  RH  000%=      5-min Rain = 0
KGO1 061103Z 19005KT M8999/M9999 A2992 RMK A01 T189990199990  RH  000%=      5-min Rain = 0
KGO1 061104Z 19005KT M8999/M9999 A2992 RMK A01 T189990199990  RH  000%=      5-min Rain = 0
KGO1 061105Z 19005KT M8999/M9999 A2992 RMK A01 T189990199990  RH  000%=      5-min Rain = 0
KGO1 061106Z 19006KT M8999/M9999 A2992 RMK A01 T189990199990  RH  000%=      5-min Rain = 0
KGO1 061107Z 18006KT M8999/M9999 A2992 RMK A01 T189990199990  RH  000%=      5-min Rain = 0
KGO1 061108Z 18006KT M8999/M9999 A2992 RMK A01 T189990199990  RH  000%=      5-min Rain = 0
KGO1 061109Z 18007KT M8999/M9999 A2992 RMK A01 T189990199990  RH  000%=      5-min Rain = 0
KGO1 061110Z 18007KT M8999/M9999 A2992 RMK A01 T189990199990  RH  000%=      5-min Rain = 0
KGO1 061111Z 18007KT M8999/M9999 A2992 RMK A01 T189990199990  RH  000%=      5-min Rain = 0
KGO1 061112Z 18007KT M8999/M9999 A2992 RMK A01 T189990199990  RH  000%=      5-min Rain = 0
KGO1 061113Z 17008KT M8999/M9999 A2992 RMK A01 T189990199990  RH  000%=      5-min Rain = 0
KGO1 061114Z 17007KT M8999/M9999 A2992 RMK A01 T189990199990  RH  000%=      5-min Rain = 0
KGO1 061115Z 17008KT M8999/M9999 A2992 RMK A01 T189990199990  RH  000%=      5-min Rain = 0
KGO1 061116Z 17008KT M8999/M9999 A2992 RMK A01 T189990199990  RH  000%=      5-min Rain = 0
KGO1 061117Z 17008KT M8999/M9999 A2992 RMK A01 T189990199990  RH  000%=      5-min Rain = 0
KGO1 061118Z 17007KT M8999/M9999 A2992 RMK A01 T189990199990  RH  000%=      5-min Rain = 0
KGO1 061119Z 17006KT M8999/M9999 A2992 RMK A01 T189990199990  RH  000%=      5-min Rain = 0
KGO1 061120Z 16006KT M8999/M9999 A2992 RMK A01 T189990199990  RH  000%=      5-min Rain = 0
KGO1 061121Z 17006KT M8999/M9999 A2992 RMK A01 T189990199990  RH  000%=      5-min Rain = 0
KGO1 061122Z 17006KT M8999/M9999 A2992 RMK A01 T189990199990  RH  000%=      5-min Rain = 0
KGO1 061123Z 16005KT M8999/M9999 A2992 RMK A01 T189990199990  RH  000%=      5-min Rain = 0
KGO1 061124Z 17005KT M8999/M9999 A2992 RMK A01 T189990199990  RH  000%=      5-min Rain = 0
KGO1 061125Z 16004KT M8999/M9999 A2993 RMK A01 T189990199990  RH  000%=      5-min Rain = 0
KGO1 061126Z 17003KT M8999/M9999 A2993 RMK A01 T189990199990  RH  000%=      5-min Rain = 0
KGO1 061127Z 16003KT M8999/M9999 A2993 RMK A01 T189990199990  RH  000%=      5-min Rain = 0
KGO1 061128Z 16002KT M8999/M9999 A2992 RMK A01 T189990199990  RH  000%=      5-min Rain = 0
KGO1 061129Z 15003KT M8999/M9999 A2992 RMK A01 T189990199990  RH  000%=      5-min Rain = 0
KGO1 061130Z 16003KT M8999/M9999 A2992 RMK A01 T189990199990  RH  000%=      5-min Rain = 0
KGO1 061131Z 15004KT M8999/M9999 A2992 RMK A01 T189990199990  RH  000%=      5-min Rain = 0
KGO1 061132Z 15004KT M8999/M9999 A2992 RMK A01 T189990199990  RH  000%=      5-min Rain = 0
KGO1 061133Z 15004KT M8999/M9999 A2992 RMK A01 T189990199990  RH  000%=      5-min Rain = 0
KGO1 061134Z 15005KT M8999/M9999 A2992 RMK A01 T189990199990  RH  000%=      5-min Rain = 0
KGO1 061135Z 16005KT M8999/M9999 A2992 RMK A01 T189990199990  RH  000%=      5-min Rain = 0
KGO1 061136Z 16007KT M8999/M9999 A2992 RMK A01 T189990199990  RH  050%=      5-min Rain = 0
KGO1 061137Z 15006KT 13/13 A2992 RMK A01 T01260126  RH  100%=      5-min Rain = 0
KGO1 061138Z 16005KT 13/13 A2992 RMK A01 T01260126  RH  100%=      5-min Rain = 0
KGO1 061139Z 16004KT 13/13 A2992 RMK A01 T01270127  RH  100%=      5-min Rain = 0
KGO1 061140Z 16003KT 13/13 A2992 RMK A01 T01270127  RH  100%=      5-min Rain = 0
KGO1 061141Z 14002KT 13/13 A2992 RMK A01 T01260126  RH  100%=      5-min Rain = 0
KGO1 061142Z 13002KT 13/13 A2992 RMK A01 T01260126  RH  100%=      5-min Rain = 0
KGO1 061143Z 12001KT 13/13 A2992 RMK A01 T01260126  RH  100%=      5-min Rain = 0
KGO1 061144Z 10001KT 13/13 A2992 RMK A01 T01260126  RH  100%=      5-min Rain = 0
KGO1 061145Z 11001KT 13/13 A2992 RMK A01 T01260126  RH  100%=      5-min Rain = 0
KGO1 061146Z 12002KT 13/13 A2992 RMK A01 T01260126  RH  100%=      5-min Rain = 0
KGO1 061147Z 15002KT 13/13 A2992 RMK A01 T01260126  RH  100%=      5-min Rain = 0
KGO1 061148Z 14002KT 13/13 A2992 RMK A01 T01260126  RH  100%=      5-min Rain = 0
KGO1 061149Z 14002KT 13/13 A2992 RMK A01 T01260126  RH  100%=      5-min Rain = 0
KGO1 061150Z 13002KT 13/13 A2992 RMK A01 T01250125  RH  100%=      5-min Rain = 0
KGO1 061151Z 14002KT 13/13 A2992 RMK A01 T01250125  RH  100%=      5-min Rain = 0
KGO1 061152Z 14001KT 13/13 A2992 RMK A01 T01250125  RH  100%=      5-min Rain = 0
KGO1 061153Z 15001KT 12/12 A2993 RMK A01 T01240124  RH  100%=      5-min Rain = 0
KGO1 061154Z 16002KT 12/12 A2993 RMK A01 T01240124  RH  100%=      5-min Rain = 0
KGO1 061155Z 14001KT 12/12 A2993 RMK A01 T01240124  RH  100%=      5-min Rain = 0
KGO1 061156Z 14002KT 13/13 A2993 RMK A01 T01250125  RH  100%=      5-min Rain = 0
KGO1 061157Z 16002KT 13/13 A2993 RMK A01 T01250125  RH  100%=      5-min Rain = 0
KGO1 061158Z 15002KT 13/13 A2993 RMK A01 T01250125  RH  100%=      5-min Rain = 0
KGO1 061159Z 14003KT 13/13 A2993 RMK A01 T01250125  RH  100%=      5-min Rain = 0
KGO1 061200Z 15003KT 13/13 A2993 RMK A01 T01260126  RH  100%=      5-min Rain = 0
KGO1 061201Z 14003KT 13/13 A2993 RMK A01 T01260126  RH  100%=      5-min Rain = 0
KGO1 061202Z 14003KT 13/13 A2993 RMK A01 T01250125  RH  100%=      5-min Rain = 0
KGO1 061203Z 15003KT 13/13 A2993 RMK A01 T01250125  RH  100%=      5-min Rain = 0
KGO1 061204Z 15004KT 12/12 A2993 RMK A01 T01240124  RH  100%=      5-min Rain = 0
KGO1 061205Z 16004KT 12/13 A2993 RMK A01 T01240125  RH  100%=      5-min Rain = 0
KGO1 061206Z 17005KT 13/13 A2993 RMK A01 T01250125  RH  100%=      5-min Rain = 0
KGO1 061207Z 17006KT 13/13 A2993 RMK A01 T01260126  RH  100%=      5-min Rain = 0
KGO1 061208Z 17005KT 13/13 A2993 RMK A01 T01260126  RH  100%=      5-min Rain = 0
KGO1 061209Z 17005KT 13/13 A2993 RMK A01 T01260126  RH  100%=      5-min Rain = 0
KGO1 061210Z 18006KT 13/13 A2993 RMK A01 T01260126  RH  100%=      5-min Rain = 0
KGO1 061211Z 18006KT 13/13 A2993 RMK A01 T01260126  RH  100%=      5-min Rain = 0
KGO1 061212Z 18006KT 13/13 A2993 RMK A01 T01260126  RH  100%=      5-min Rain = 0
KGO1 061213Z 18007KT 13/13 A2993 RMK A01 T01260126  RH  100%=      5-min Rain = 0
KGO1 061214Z 18006KT 13/13 A2993 RMK A01 T01260126  RH  100%=      5-min Rain = 0
KGO1 061215Z 18006KT 13/13 A2993 RMK A01 T01260126  RH  100%=      5-min Rain = 0
KGO1 061216Z 18006KT 13/13 A2993 RMK A01 T01260126  RH  100%=      5-min Rain = 0
KGO1 061217Z 18007KT 13/13 A2993 RMK A01 T01260126  RH  100%=      5-min Rain = 0
KGO1 061218Z 18006KT 13/13 A2994 RMK A01 T01260126  RH  100%=      5-min Rain = 0
KGO1 061219Z 18006KT 13/13 A2994 RMK A01 T01260126  RH  100%=      5-min Rain = 0
KGO1 061220Z 18005KT 13/13 A2994 RMK A01 T01260126  RH  100%=      5-min Rain = 0
KGO1 061221Z 18005KT 13/13 A2994 RMK A01 T01260126  RH  100%=      5-min Rain = 0
KGO1 061222Z 19005KT 13/13 A2994 RMK A01 T01250125  RH  100%=      5-min Rain = 0
KGO1 061223Z 19004KT 13/13 A2994 RMK A01 T01250125  RH  100%=      5-min Rain = 0
KGO1 061224Z 19005KT 13/13 A2994 RMK A01 T01250125  RH  100%=      5-min Rain = 0
KGO1 061225Z 19006KT 13/13 A2994 RMK A01 T01250125  RH  100%=      5-min Rain = 0
KGO1 061226Z 18005KT 13/13 A2994 RMK A01 T01260126  RH  100%=      5-min Rain = 0
KGO1 061227Z 18006KT 13/13 A2994 RMK A01 T01260126  RH  100%=      5-min Rain = 0
KGO1 061228Z 20005KT 13/13 A2994 RMK A01 T01260127  RH  100%=      5-min Rain = 0
KGO1 061229Z 19006KT 13/13 A2994 RMK A01 T01260126  RH  100%=      5-min Rain = 0
KGO1 061230Z 20006KT 13/13 A2994 RMK A01 T01250125  RH  100%=      5-min Rain = 0
KGO1 061231Z 20006KT 13/13 A2994 RMK A01 T01260126  RH  100%=      5-min Rain = 0
KGO1 061232Z 19007KT 13/13 A2994 RMK A01 T01260126  RH  100%=      5-min Rain = 0
KGO1 061233Z 20007KT 13/13 A2994 RMK A01 T01250125  RH  100%=      5-min Rain = 0
KGO1 061234Z 20008KT 13/13 A2994 RMK A01 T01250125  RH  100%=      5-min Rain = 0
KGO1 061235Z 20008KT 13/13 A2994 RMK A01 T01250125  RH  100%=      5-min Rain = 0
KGO1 061236Z 20009KT 13/13 A2994 RMK A01 T01250125  RH  100%=      5-min Rain = 0
KGO1 061237Z 20009KT 13/13 A2994 RMK A01 T01250125  RH  100%=      5-min Rain = 0
KGO1 061238Z 20009KT 13/13 A2994 RMK A01 T01250125  RH  100%=      5-min Rain = 0
KGO1 061239Z 20010KT 13/13 A2994 RMK A01 T01260126  RH  100%=      5-min Rain = 0
KGO1 061240Z 20010KT 13/13 A2994 RMK A01 T01260126  RH  100%=      5-min Rain = 0
KGO1 061241Z 20009KT 13/13 A2994 RMK A01 T01260126  RH  100%=      5-min Rain = 0
KGO1 061242Z 20010KT 13/13 A2994 RMK A01 T01260126  RH  100%=      5-min Rain = 0
KGO1 061243Z 20010KT 13/13 A2994 RMK A01 T01260126  RH  100%=      5-min Rain = 0
KGO1 061244Z 20010KT 13/13 A2994 RMK A01 T01260126  RH  100%=      5-min Rain = 0
KGO1 061245Z 20011KT 13/13 A2994 RMK A01 T01260126  RH  100%=      5-min Rain = 0
KGO1 061246Z 20010KT 13/13 A2994 RMK A01 T01270127  RH  100%=      5-min Rain = 0
KGO1 061247Z 20009KT 13/13 A2994 RMK A01 T01270127  RH  100%=      5-min Rain = 0
KGO1 061248Z 20009KT 13/13 A2994 RMK A01 T01270127  RH  100%=      5-min Rain = 0
KGO1 061249Z 20009KT 13/13 A2994 RMK A01 T01260126  RH  100%=      5-min Rain = 0
KGO1 061250Z 20009KT 13/13 A2994 RMK A01 T01260126  RH  100%=      5-min Rain = 0
KGO1 061251Z 20009KT 13/13 A2994 RMK A01 T01260126  RH  100%=      5-min Rain = 0
KGO1 061252Z 20009KT 13/13 A2994 RMK A01 T01260126  RH  100%=      5-min Rain = 0
KGO1 061253Z 20009KT 13/13 A2994 RMK A01 T01260126  RH  100%=      5-min Rain = 0
KGO1 061254Z 20009KT 13/13 A2994 RMK A01 T01260126  RH  100%=      5-min Rain = 0
KGO1 061255Z 20009KT 13/13 A2994 RMK A01 T01260126  RH  100%=      5-min Rain = 0
KGO1 061256Z 20009KT 13/13 A2994 RMK A01 T01260126  RH  100%=      5-min Rain = 0
KGO1 061257Z 20010KT 13/13 A2994 RMK A01 T01260126  RH  100%=      5-min Rain = 0
KGO1 061258Z 20010KT 13/13 A2994 RMK A01 T01270127  RH  100%=      5-min Rain = 0
KGO1 061259Z 20009KT 13/13 A2994 RMK A01 T01270127  RH  100%=      5-min Rain = 0
KGO1 061300Z 20010KT 13/13 A2995 RMK A01 T01270127  RH  100%=      5-min Rain = 0
KGO1 061301Z 20010KT 13/13 A2995 RMK A01 T01280128  RH  100%=      5-min Rain = 0
KGO1 061302Z 20009KT 13/13 A2995 RMK A01 T01290129  RH  100%=      5-min Rain = 0
KGO1 061303Z 20009KT 13/13 A2995 RMK A01 T01290129  RH  100%=      5-min Rain = 0
KGO1 061304Z 20010KT 13/13 A2995 RMK A01 T01290130  RH  100%=      5-min Rain = 0
KGO1 061305Z 20010KT 13/13 A2995 RMK A01 T01290129  RH  100%=      5-min Rain = 0
KGO1 061306Z 20010KT 13/13 A2995 RMK A01 T01290129  RH  100%=      5-min Rain = 0
KGO1 061307Z 20009KT 13/13 A2995 RMK A01 T01290129  RH  100%=      5-min Rain = 0
KGO1 061308Z 20009KT 13/13 A2996 RMK A01 T01290129  RH  100%=      5-min Rain = 0
KGO1 061309Z 20010KT 13/13 A2996 RMK A01 T01300130  RH  100%=      5-min Rain = 0
KGO1 061310Z 20009KT 13/13 A2996 RMK A01 T01300130  RH  100%=      5-min Rain = 0
KGO1 061311Z 20010KT 13/13 A2996 RMK A01 T01300130  RH  100%=      5-min Rain = 0
KGO1 061312Z 19010KT 13/13 A2996 RMK A01 T01300130  RH  100%=      5-min Rain = 0
KGO1 061313Z 19010KT 13/13 A2996 RMK A01 T01300130  RH  100%=      5-min Rain = 0
KGO1 061314Z 19010KT 13/13 A2996 RMK A01 T01300131  RH  100%=      5-min Rain = 0
KGO1 061315Z 20010KT 13/13 A2996 RMK A01 T01310131  RH  100%=      5-min Rain = 0
KGO1 061316Z 19009KT 13/13 A2996 RMK A01 T01310131  RH  100%=      5-min Rain = 0
KGO1 061317Z 20009KT 13/13 A2996 RMK A01 T01310131  RH  100%=      5-min Rain = 0
KGO1 061318Z 20009KT 13/13 A2996 RMK A01 T01310131  RH  100%=      5-min Rain = 0
KGO1 061319Z 20009KT 13/13 A2996 RMK A01 T01320132  RH  100%=      5-min Rain = 0
KGO1 061320Z 19009KT 13/13 A2996 RMK A01 T01320132  RH  100%=      5-min Rain = 0
KGO1 061321Z 20009KT 13/13 A2996 RMK A01 T01330133  RH  100%=      5-min Rain = 0
KGO1 061322Z 20012KT 13/13 A2996 RMK A01 T01330133  RH  100%=      5-min Rain = 0
KGO1 061323Z 20011KT 13/13 A2996 RMK A01 T01340134  RH  100%=      5-min Rain = 0
KGO1 061324Z 20011KT 13/13 A2996 RMK A01 T01340134  RH  100%=      5-min Rain = 0
KGO1 061325Z 21011KT 14/14 A2996 RMK A01 T01350135  RH  100%=      5-min Rain = 0
KGO1 061326Z 20009KT 14/14 A2995 RMK A01 T01350135  RH  100%=      5-min Rain = 0
KGO1 061327Z 20010KT 14/14 A2995 RMK A01 T01350135  RH  100%=      5-min Rain = 0
KGO1 061328Z 20012KT 14/14 A2995 RMK A01 T01360136  RH  100%=      5-min Rain = 0
KGO1 061329Z 20011KT 14/14 A2995 RMK A01 T01360136  RH  100%=      5-min Rain = 0
KGO1 061330Z 20011KT 14/14 A2996 RMK A01 T01370137  RH  100%=      5-min Rain = 0
KGO1 061331Z 20010KT 14/14 A2996 RMK A01 T01390139  RH  100%=      5-min Rain = 0
KGO1 061332Z 20012KT 14/14 A2996 RMK A01 T01400140  RH  100%=      5-min Rain = 0
KGO1 061333Z 19013KT 14/14 A2996 RMK A01 T01400140  RH  100%=      5-min Rain = 0
KGO1 061334Z 20012KT 14/14 A2996 RMK A01 T01400140  RH  100%=      5-min Rain = 0
KGO1 061335Z 20013KT 14/14 A2996 RMK A01 T01410141  RH  100%=      5-min Rain = 0
KGO1 061336Z 20011KT 14/14 A2996 RMK A01 T01410141  RH  100%=      5-min Rain = 0
KGO1 061337Z 20011KT 14/14 A2996 RMK A01 T01420142  RH  100%=      5-min Rain = 0
KGO1 061338Z 20010KT 14/14 A2996 RMK A01 T01420142  RH  100%=      5-min Rain = 0
KGO1 061339Z 20010KT 14/14 A2996 RMK A01 T01440144  RH  100%=      5-min Rain = 0
KGO1 061340Z 20012KT 14/14 A2995 RMK A01 T01440144  RH  100%=      5-min Rain = 0
KGO1 061341Z 20015KT 15/15 A2995 RMK A01 T01450145  RH  100%=      5-min Rain = 0
KGO1 061342Z 20012KT 15/15 A2995 RMK A01 T01460146  RH  100%=      5-min Rain = 0
KGO1 061343Z 20014KT 15/15 A2996 RMK A01 T01460146  RH  100%=      5-min Rain = 0
KGO1 061344Z 20014KT 15/15 A2996 RMK A01 T01470147  RH  100%=      5-min Rain = 0
KGO1 061345Z 20015KT 15/15 A2996 RMK A01 T01470147  RH  100%=      5-min Rain = 0
KGO1 061346Z 20017KT 15/15 A2996 RMK A01 T01460146  RH  100%=      5-min Rain = 0
KGO1 061347Z 20015KT 15/15 A2996 RMK A01 T01460146  RH  100%=      5-min Rain = 0
KGO1 061348Z 21016KT 15/15 A2996 RMK A01 T01450146  RH  100%=      5-min Rain = 0
KGO1 061349Z 21014KT 15/15 A2996 RMK A01 T01450145  RH  100%=      5-min Rain = 0
KGO1 061350Z 21014KT 15/15 A2996 RMK A01 T01450145  RH  100%=      5-min Rain = 0
KGO1 061351Z 21012KT 15/15 A2996 RMK A01 T01450145  RH  100%=      5-min Rain = 0
KGO1 061352Z 21014G19KT 15/15 A2996 RMK A01 T01460146  RH  100%=      5-min Rain = 0
KGO1 061353Z 21013KT 15/15 A2996 RMK A01 T01460146  RH  100%=      5-min Rain = 0
KGO1 061354Z 21014KT 15/15 A2996 RMK A01 T01460146  RH  100%=      5-min Rain = 0
KGO1 061355Z 20013KT 15/15 A2996 RMK A01 T01470147  RH  100%=      5-min Rain = 0
KGO1 061356Z 20013KT 15/15 A2996 RMK A01 T01470147  RH  100%=      5-min Rain = 0
KGO1 061357Z 21013KT 15/15 A2996 RMK A01 T01470147  RH  100%=      5-min Rain = 0
KGO1 061358Z 21012KT 15/15 A2996 RMK A01 T01470147  RH  100%=      5-min Rain = 0
KGO1 061359Z 21014KT 15/15 A2996 RMK A01 T01470145  RH  099%=      5-min Rain = 0
KGO1 061400Z 21012KT 15/15 A2996 RMK A01 T01470145  RH  098%=      5-min Rain = 0
KGO1 061401Z 21013KT 15/15 A2996 RMK A01 T01470145  RH  099%=      5-min Rain = 0
KGO1 061402Z 21011KT 15/14 A2996 RMK A01 T01470144  RH  098%=      5-min Rain = 0
KGO1 061403Z 21011KT 15/15 A2996 RMK A01 T01470146  RH  099%=      5-min Rain = 0
KGO1 061404Z 20015KT 15/14 A2996 RMK A01 T01480144  RH  098%=      5-min Rain = 0
KGO1 061405Z 20013KT 15/14 A2996 RMK A01 T01480142  RH  097%=      5-min Rain = 0
KGO1 061406Z 19015KT 15/14 A2996 RMK A01 T01470142  RH  097%=      5-min Rain = 0
KGO1 061407Z 20014KT 15/14 A2996 RMK A01 T01470141  RH  096%=      5-min Rain = 0
KGO1 061408Z 20014KT 15/14 A2996 RMK A01 T01470142  RH  097%=      5-min Rain = 0
KGO1 061409Z 19013KT 15/14 A2996 RMK A01 T01470141  RH  096%=      5-min Rain = 0
KGO1 061410Z 20013KT 15/14 A2996 RMK A01 T01480141  RH  096%=      5-min Rain = 0
KGO1 061411Z 20013KT 15/14 A2996 RMK A01 T01480141  RH  095%=      5-min Rain = 0
KGO1 061412Z 20013KT 15/14 A2996 RMK A01 T01480142  RH  096%=      5-min Rain = 0
KGO1 061413Z 20012KT 15/14 A2996 RMK A01 T01490142  RH  095%=      5-min Rain = 0
KGO1 061414Z 19011KT 15/14 A2996 RMK A01 T01500142  RH  095%=      5-min Rain = 0
KGO1 061415Z 19012KT 15/14 A2996 RMK A01 T01500141  RH  094%=      5-min Rain = 0
KGO1 061416Z 20012KT 15/14 A2996 RMK A01 T01500142  RH  095%=      5-min Rain = 0
KGO1 061417Z 20012KT 15/14 A2996 RMK A01 T01500140  RH  094%=      5-min Rain = 0
KGO1 061418Z 20012KT 15/14 A2996 RMK A01 T01510142  RH  095%=      5-min Rain = 0
KGO1 061419Z 19013KT 15/14 A2996 RMK A01 T01510139  RH  093%=      5-min Rain = 0
KGO1 061420Z 19012KT 15/14 A2996 RMK A01 T01510140  RH  093%=      5-min Rain = 0
KGO1 061421Z 19010KT 15/14 A2996 RMK A01 T01520140  RH  093%=      5-min Rain = 0
KGO1 061422Z 19011KT 15/14 A2996 RMK A01 T01530142  RH  093%=      5-min Rain = 0
KGO1 061423Z 20012KT 15/14 A2996 RMK A01 T01540141  RH  092%=      5-min Rain = 0
KGO1 061424Z 19011KT 16/14 A2996 RMK A01 T01550137  RH  089%=      5-min Rain = 0
KGO1 061425Z 19013KT 15/14 A2996 RMK A01 T01540137  RH  090%=      5-min Rain = 0
KGO1 061426Z 20013KT 15/13 A2996 RMK A01 T01540134  RH  088%=      5-min Rain = 0
KGO1 061427Z 20011KT 15/13 A2996 RMK A01 T01530134  RH  089%=      5-min Rain = 0
KGO1 061428Z 20012KT 15/14 A2996 RMK A01 T01520136  RH  090%=      5-min Rain = 0
KGO1 061429Z 19010KT 15/14 A2996 RMK A01 T01520136  RH  090%=      5-min Rain = 0
KGO1 061430Z 19014KT 15/14 A2996 RMK A01 T01510135  RH  090%=      5-min Rain = 0
KGO1 061431Z 19012KT 15/13 A2996 RMK A01 T01510133  RH  089%=      5-min Rain = 0
KGO1 061432Z 19012KT 15/13 A2996 RMK A01 T01510134  RH  089%=      5-min Rain = 0
KGO1 061433Z 20012KT 15/13 A2996 RMK A01 T01520134  RH  089%=      5-min Rain = 0
KGO1 061434Z 19011KT 15/13 A2996 RMK A01 T01530133  RH  088%=      5-min Rain = 0
KGO1 061435Z 20014KT 15/13 A2996 RMK A01 T01540133  RH  087%=      5-min Rain = 0
KGO1 061436Z 20013KT 16/13 A2996 RMK A01 T01560132  RH  086%=      5-min Rain = 0
KGO1 061437Z 19009KT 16/14 A2996 RMK A01 T01560135  RH  087%=      5-min Rain = 0
KGO1 061438Z 18012KT 16/14 A2996 RMK A01 T01580135  RH  086%=      5-min Rain = 0
KGO1 061439Z 18013KT 16/13 A2996 RMK A01 T01590133  RH  085%=      5-min Rain = 0
KGO1 061440Z 18012KT 16/13 A2996 RMK A01 T01590131  RH  084%=      5-min Rain = 0
KGO1 061441Z 20010KT 16/13 A2996 RMK A01 T01590134  RH  085%=      5-min Rain = 0
KGO1 061442Z 19011KT 16/13 A2996 RMK A01 T01600134  RH  085%=      5-min Rain = 0
KGO1 061443Z 19011KT 16/13 A2996 RMK A01 T01610133  RH  083%=      5-min Rain = 0
KGO1 061444Z 19010KT 16/14 A2996 RMK A01 T01610135  RH  085%=      5-min Rain = 0
KGO1 061445Z 19011KT 16/14 A2996 RMK A01 T01620135  RH  084%=      5-min Rain = 0
KGO1 061446Z 19009KT 16/13 A2997 RMK A01 T01630133  RH  083%=      5-min Rain = 0
KGO1 061447Z 19012KT 16/13 A2997 RMK A01 T01630133  RH  082%=      5-min Rain = 0
KGO1 061448Z 20009KT 16/13 A2997 RMK A01 T01610130  RH  082%=      5-min Rain = 0
KGO1 061449Z 19009KT 16/13 A2997 RMK A01 T01610134  RH  084%=      5-min Rain = 0
KGO1 061450Z 19011KT 16/13 A2997 RMK A01 T01630134  RH  083%=      5-min Rain = 0
KGO1 061451Z 19010KT 16/13 A2997 RMK A01 T01640131  RH  081%=      5-min Rain = 0
KGO1 061452Z 18010KT 16/13 A2997 RMK A01 T01640131  RH  081%=      5-min Rain = 0
KGO1 061453Z 19009KT 17/13 A2997 RMK A01 T01650130  RH  080%=      5-min Rain = 0
KGO1 061454Z 20010KT 17/13 A2997 RMK A01 T01650129  RH  079%=      5-min Rain = 0
KGO1 061455Z 20010KT 17/13 A2997 RMK A01 T01650131  RH  080%=      5-min Rain = 0
KGO1 061456Z 20008KT 17/13 A2997 RMK A01 T01660133  RH  081%=      5-min Rain = 0
KGO1 061457Z 20007KT 17/13 A2997 RMK A01 T01670129  RH  078%=      5-min Rain = 0
KGO1 061458Z 19009KT 17/13 A2997 RMK A01 T01680134  RH  081%=      5-min Rain = 0
KGO1 061459Z 19010KT 17/13 A2997 RMK A01 T01690133  RH  079%=      5-min Rain = 0
KGO1 061500Z 19009KT 17/13 A2997 RMK A01 T01700131  RH  078%=      5-min Rain = 0
KGO1 061501Z 20009KT 17/13 A2997 RMK A01 T01690130  RH  078%=      5-min Rain = 0
KGO1 061502Z 19008KT 17/13 A2997 RMK A01 T01680129  RH  078%=      5-min Rain = 0
KGO1 061503Z 19007KT 17/13 A2997 RMK A01 T01680130  RH  078%=      5-min Rain = 0
KGO1 061504Z 19006KT 17/13 A2997 RMK A01 T01670129  RH  078%=      5-min Rain = 0
KGO1 061505Z 19009KT 17/13 A2997 RMK A01 T01670128  RH  078%=      5-min Rain = 0
KGO1 061506Z 19009KT 17/13 A2997 RMK A01 T01670127  RH  077%=      5-min Rain = 0
KGO1 061507Z 19010KT 17/13 A2997 RMK A01 T01660126  RH  077%=      5-min Rain = 0
KGO1 061508Z 20009KT 17/13 A2997 RMK A01 T01670130  RH  079%=      5-min Rain = 0
KGO1 061509Z 20010KT 17/13 A2997 RMK A01 T01700129  RH  077%=      5-min Rain = 0
KGO1 061510Z 21007KT 17/13 A2997 RMK A01 T01700129  RH  077%=      5-min Rain = 0
KGO1 061511Z 21007KT 17/13 A2997 RMK A01 T01720130  RH  077%=      5-min Rain = 0
KGO1 061512Z 20007KT 17/13 A2997 RMK A01 T01720131  RH  077%=      5-min Rain = 0
KGO1 061513Z 20006KT 17/13 A2997 RMK A01 T01730132  RH  077%=      5-min Rain = 0
KGO1 061514Z 20007KT 17/13 A2997 RMK A01 T01730133  RH  077%=      5-min Rain = 0
KGO1 061515Z 18008KT 17/13 A2997 RMK A01 T01740133  RH  077%=      5-min Rain = 0
KGO1 061516Z 19009KT 18/13 A2997 RMK A01 T01750132  RH  076%=      5-min Rain = 0
KGO1 061517Z 19010KT 17/13 A2997 RMK A01 T01740131  RH  076%=      5-min Rain = 0
KGO1 061518Z 18008KT 17/13 A2997 RMK A01 T01730131  RH  076%=      5-min Rain = 0
KGO1 061519Z 21009KT 17/13 A2997 RMK A01 T01730133  RH  077%=      5-min Rain = 0
KGO1 061520Z 22009KT 17/13 A2997 RMK A01 T01740130  RH  075%=      5-min Rain = 0
KGO1 061521Z 20010KT 17/13 A2997 RMK A01 T01730133  RH  077%=      5-min Rain = 0
KGO1 061522Z 20010KT 17/13 A2997 RMK A01 T01740133  RH  077%=      5-min Rain = 0
KGO1 061523Z 19010KT 18/13 A2997 RMK A01 T01750133  RH  076%=      5-min Rain = 0
KGO1 061524Z 20011KT 18/14 A2997 RMK A01 T01760135  RH  077%=      5-min Rain = 0
KGO1 061525Z 20010KT 18/13 A2997 RMK A01 T01770131  RH  074%=      5-min Rain = 0
KGO1 061526Z 21011KT 18/13 A2997 RMK A01 T01750131  RH  075%=      5-min Rain = 0
KGO1 061527Z 22009KT 18/13 A2997 RMK A01 T01750134  RH  077%=      5-min Rain = 0
KGO1 061528Z 21010G15KT 18/14 A2997 RMK A01 T01790135  RH  075%=      5-min Rain = 0
KGO1 061529Z 21013KT 18/13 A2997 RMK A01 T01810133  RH  073%=      5-min Rain = 0
KGO1 061530Z 22012KT 18/13 A2997 RMK A01 T01800131  RH  073%=      5-min Rain = 0
KGO1 061531Z 23010KT 18/13 A2997 RMK A01 T01790128  RH  072%=      5-min Rain = 0
KGO1 061532Z 22012KT 18/13 A2997 RMK A01 T01780131  RH  074%=      5-min Rain = 0
KGO1 061533Z 22011KT 18/13 A2997 RMK A01 T01790131  RH  073%=      5-min Rain = 0
KGO1 061534Z 21012KT 18/13 A2997 RMK A01 T01790132  RH  074%=      5-min Rain = 0
KGO1 061535Z 21013KT 18/13 A2997 RMK A01 T01780128  RH  072%=      5-min Rain = 0
KGO1 061536Z 21013KT 18/13 A2998 RMK A01 T01770129  RH  074%=      5-min Rain = 0
KGO1 061537Z 22014KT 18/13 A2997 RMK A01 T01760128  RH  073%=      5-min Rain = 0
KGO1 061538Z 22012KT 18/13 A2997 RMK A01 T01760129  RH  074%=      5-min Rain = 0
KGO1 061539Z 20013KT 18/13 A2997 RMK A01 T01770131  RH  075%=      5-min Rain = 0
KGO1 061540Z 21014KT 18/13 A2997 RMK A01 T01780130  RH  073%=      5-min Rain = 0
KGO1 061541Z 22014KT 18/13 A2997 RMK A01 T01780129  RH  073%=      5-min Rain = 0
KGO1 061542Z 21012KT 18/13 A2997 RMK A01 T01770125  RH  072%=      5-min Rain = 0
KGO1 061543Z 21011KT 18/13 A2997 RMK A01 T01760129  RH  074%=      5-min Rain = 0
KGO1 061544Z 21012KT 18/13 A2997 RMK A01 T01770130  RH  074%=      5-min Rain = 0
KGO1 061545Z 20014KT 18/13 A2997 RMK A01 T01790130  RH  073%=      5-min Rain = 0
KGO1 061546Z 21012KT 18/13 A2997 RMK A01 T01790130  RH  073%=      5-min Rain = 0
KGO1 061547Z 21013KT 18/13 A2997 RMK A01 T01790129  RH  072%=      5-min Rain = 0
KGO1 061548Z 20014KT 18/13 A2997 RMK A01 T01800127  RH  071%=      5-min Rain = 0
KGO1 061549Z 20012KT 18/13 A2997 RMK A01 T01800128  RH  072%=      5-min Rain = 0
KGO1 061550Z 21013KT 18/13 A2997 RMK A01 T01810131  RH  072%=      5-min Rain = 0
KGO1 061551Z 21012KT 18/13 A2997 RMK A01 T01830129  RH  071%=      5-min Rain = 0
KGO1 061552Z 21011KT 18/13 A2997 RMK A01 T01830129  RH  071%=      5-min Rain = 0
KGO1 061553Z 20013KT 18/13 A2997 RMK A01 T01830127  RH  070%=      5-min Rain = 0
KGO1 061554Z 20012KT 18/13 A2997 RMK A01 T01830126  RH  069%=      5-min Rain = 0
KGO1 061555Z 20012KT 18/13 A2997 RMK A01 T01830127  RH  070%=      5-min Rain = 0
KGO1 061556Z 20011KT 18/13 A2997 RMK A01 T01830127  RH  070%=      5-min Rain = 0
KGO1 061557Z 20011KT 18/13 A2997 RMK A01 T01830128  RH  070%=      5-min Rain = 0
KGO1 061558Z 20012KT 19/13 A2997 RMK A01 T01850130  RH  070%=      5-min Rain = 0
KGO1 061559Z 21010KT 19/13 A2997 RMK A01 T01860128  RH  069%=      5-min Rain = 0
KGO1 061600Z 20009KT 19/13 A2997 RMK A01 T01860130  RH  070%=      5-min Rain = 0
KGO1 061601Z 21009KT 19/13 A2997 RMK A01 T01870128  RH  068%=      5-min Rain = 0
KGO1 061602Z 22009KT 19/13 A2997 RMK A01 T01870126  RH  068%=      5-min Rain = 0
KGO1 061603Z 21010KT 19/13 A2997 RMK A01 T01860128  RH  069%=      5-min Rain = 0
KGO1 061604Z 20008KT 18/13 A2997 RMK A01 T01840127  RH  069%=      5-min Rain = 0
KGO1 061605Z 19009KT 18/13 A2997 RMK A01 T01840130  RH  070%=      5-min Rain = 0
KGO1 061606Z 19009KT 18/13 A2997 RMK A01 T01840126  RH  069%=      5-min Rain = 0
KGO1 061607Z 19010KT 18/12 A2997 RMK A01 T01840124  RH  068%=      5-min Rain = 0
KGO1 061608Z 20008KT 19/13 A2997 RMK A01 T01850126  RH  069%=      5-min Rain = 0
KGO1 061609Z 19008KT 19/13 A2997 RMK A01 T01880129  RH  069%=      5-min Rain = 0
KGO1 061610Z 20006KT 19/13 A2997 RMK A01 T01890131  RH  069%=      5-min Rain = 0
KGO1 061611Z 21009KT 19/13 A2997 RMK A01 T01910131  RH  068%=      5-min Rain = 0
KGO1 061612Z 20010KT 19/13 A2997 RMK A01 T01920130  RH  067%=      5-min Rain = 0
KGO1 061613Z 20007KT 19/13 A2997 RMK A01 T01920126  RH  065%=      5-min Rain = 0
KGO1 061614Z 19007KT 19/13 A2997 RMK A01 T01910128  RH  067%=      5-min Rain = 0
KGO1 061615Z 17006KT 19/13 A2997 RMK A01 T01920134  RH  069%=      5-min Rain = 0
KGO1 061616Z 19008KT 19/13 A2997 RMK A01 T01940134  RH  068%=      5-min Rain = 0
KGO1 061617Z 19011KT 20/13 A2997 RMK A01 T01960130  RH  066%=      5-min Rain = 0
KGO1 061618Z 21008KT 20/13 A2997 RMK A01 T01950133  RH  067%=      5-min Rain = 0
KGO1 061619Z 21009KT 20/13 A2997 RMK A01 T01950128  RH  065%=      5-min Rain = 0
KGO1 061620Z 20009KT 19/13 A2997 RMK A01 T01940130  RH  066%=      5-min Rain = 0
KGO1 061621Z 19010KT 19/13 A2998 RMK A01 T01940127  RH  065%=      5-min Rain = 0
KGO1 061622Z 20007KT 19/13 A2998 RMK A01 T01930131  RH  067%=      5-min Rain = 0
KGO1 061623Z 20008KT 19/13 A2998 RMK A01 T01940131  RH  067%=      5-min Rain = 0
KGO1 061624Z 22010KT 20/13 A2998 RMK A01 T01970130  RH  065%=      5-min Rain = 0
KGO1 061625Z 22009KT 20/13 A2998 RMK A01 T01960130  RH  066%=      5-min Rain = 0
KGO1 061626Z 22010KT 20/13 A2998 RMK A01 T01960128  RH  065%=      5-min Rain = 0
KGO1 061627Z 22011KT 20/13 A2998 RMK A01 T01950130  RH  066%=      5-min Rain = 0
KGO1 061628Z 21011KT 20/13 A2998 RMK A01 T01960132  RH  066%=      5-min Rain = 0
KGO1 061629Z 21010KT 20/13 A2998 RMK A01 T01970128  RH  064%=      5-min Rain = 0
KGO1 061630Z 20007KT 20/13 A2998 RMK A01 T01970131  RH  065%=      5-min Rain = 0
KGO1 061631Z 21008KT 20/13 A2998 RMK A01 T01970130  RH  065%=      5-min Rain = 0
KGO1 061632Z 19009KT 20/13 A2998 RMK A01 T01980133  RH  066%=      5-min Rain = 0
KGO1 061633Z 19009G14KT 20/13 A2998 RMK A01 T01990132  RH  065%=      5-min Rain = 0
KGO1 061634Z 19013KT 20/13 A2998 RMK A01 T01990131  RH  065%=      5-min Rain = 0
KGO1 061635Z 20013KT 20/13 A2998 RMK A01 T02000129  RH  063%=      5-min Rain = 0
KGO1 061636Z 20012KT 20/13 A2998 RMK A01 T02010129  RH  063%=      5-min Rain = 0
KGO1 061637Z 20010KT 20/13 A2998 RMK A01 T02010129  RH  063%=      5-min Rain = 0
KGO1 061638Z 20009KT 20/13 A2998 RMK A01 T02010130  RH  063%=      5-min Rain = 0
KGO1 061639Z 21012KT 20/13 A2998 RMK A01 T02020128  RH  063%=      5-min Rain = 0
KGO1 061640Z 21010KT 20/13 A2998 RMK A01 T02020128  RH  063%=      5-min Rain = 0
KGO1 061641Z 21011KT 20/13 A2998 RMK A01 T02030129  RH  063%=      5-min Rain = 0
KGO1 061642Z 22011KT 21/13 A2998 RMK A01 T02050128  RH  061%=      5-min Rain = 0
KGO1 061643Z 21008KT 20/12 A2998 RMK A01 T02040124  RH  060%=      5-min Rain = 0
KGO1 061644Z 20011KT 20/13 A2998 RMK A01 T02030125  RH  061%=      5-min Rain = 0
KGO1 061645Z 21014KT 21/13 A2998 RMK A01 T02050126  RH  061%=      5-min Rain = 0
KGO1 061646Z 21012KT 21/12 A2998 RMK A01 T02050124  RH  060%=      5-min Rain = 0
KGO1 061647Z 21009KT 20/13 A2997 RMK A01 T02040125  RH  061%=      5-min Rain = 0
KGO1 061648Z 20008KT 20/13 A2997 RMK A01 T02040128  RH  062%=      5-min Rain = 0
KGO1 061649Z 22010KT 21/13 A2997 RMK A01 T02070127  RH  060%=      5-min Rain = 0
KGO1 061650Z 22009KT 21/13 A2997 RMK A01 T02080125  RH  059%=      5-min Rain = 0
KGO1 061651Z 19008KT 21/13 A2997 RMK A01 T02070126  RH  060%=      5-min Rain = 0
KGO1 061652Z 19011KT 21/12 A2997 RMK A01 T02070124  RH  059%=      5-min Rain = 0
KGO1 061653Z 19012KT 21/12 A2997 RMK A01 T02080123  RH  058%=      5-min Rain = 0
KGO1 061654Z 20014KT 21/13 A2997 RMK A01 T02090125  RH  058%=      5-min Rain = 0
KGO1 061655Z 20012KT 21/12 A2997 RMK A01 T02100122  RH  057%=      5-min Rain = 0
KGO1 061656Z 20010KT 21/13 A2997 RMK A01 T02100125  RH  058%=      5-min Rain = 0
KGO1 061657Z 20009KT 21/13 A2997 RMK A01 T02110128  RH  059%=      5-min Rain = 0
KGO1 061658Z 19009KT 21/13 A2997 RMK A01 T02120132  RH  060%=      5-min Rain = 0
KGO1 061659Z 19010KT 21/13 A2997 RMK A01 T02130129  RH  059%=      5-min Rain = 0
KGO1 061700Z 18011KT 21/13 A2997 RMK A01 T02110130  RH  060%=      5-min Rain = 0
KGO1 061701Z 18011G16KT 21/13 A2997 RMK A01 T02120131  RH  060%=      5-min Rain = 0
KGO1 061702Z 19012KT 21/13 A2997 RMK A01 T02140131  RH  059%=      5-min Rain = 0
KGO1 061703Z 19010KT 22/13 A2997 RMK A01 T02150127  RH  057%=      5-min Rain = 0
KGO1 061704Z 19010KT 22/14 A2997 RMK A01 T02150135  RH  060%=      5-min Rain = 0
KGO1 061705Z 19008KT 22/13 A2997 RMK A01 T02180131  RH  058%=      5-min Rain = 0
KGO1 061706Z 22006KT 22/13 A2997 RMK A01 T02190134  RH  058%=      5-min Rain = 0
KGO1 061707Z 18008KT 22/13 A2997 RMK A01 T02190132  RH  058%=      5-min Rain = 0
KGO1 061708Z 19011KT 22/13 A2997 RMK A01 T02190131  RH  057%=      5-min Rain = 0
KGO1 061709Z 20008KT 22/13 A2997 RMK A01 T02180128  RH  057%=      5-min Rain = 0
KGO1 061710Z 17010KT 22/13 A2997 RMK A01 T02180133  RH  058%=      5-min Rain = 0
KGO1 061711Z 18012KT 22/13 A2997 RMK A01 T02200130  RH  057%=      5-min Rain = 0
KGO1 061712Z 19009KT 22/12 A2997 RMK A01 T02210124  RH  054%=      5-min Rain = 0
KGO1 061713Z 17007KT 22/13 A2997 RMK A01 T02210129  RH  056%=      5-min Rain = 0
KGO1 061714Z 17010KT 22/13 A2997 RMK A01 T02220128  RH  055%=      5-min Rain = 0
KGO1 061715Z 19007KT 22/13 A2997 RMK A01 T02220128  RH  055%=      5-min Rain = 0
KGO1 061716Z 19008KT 22/13 A2997 RMK A01 T02220126  RH  054%=      5-min Rain = 0
KGO1 061717Z 20010KT 22/12 A2996 RMK A01 T02220124  RH  053%=      5-min Rain = 0
KGO1 061718Z 19009KT 22/12 A2996 RMK A01 T02210122  RH  053%=      5-min Rain = 0
KGO1 061719Z 20007KT 22/12 A2996 RMK A01 T02210122  RH  054%=      5-min Rain = 0
KGO1 061720Z 19008G13KT 22/13 A2996 RMK A01 T02210125  RH  054%=      5-min Rain = 0
KGO1 061721Z 21008KT 22/13 A2996 RMK A01 T02240125  RH  053%=      5-min Rain = 0
KGO1 061722Z 20006KT 23/13 A2996 RMK A01 T02260126  RH  053%=      5-min Rain = 0
KGO1 061723Z 21008KT 23/13 A2996 RMK A01 T02260125  RH  053%=      5-min Rain = 0
KGO1 061724Z 20011KT 23/13 A2996 RMK A01 T02270127  RH  053%=      5-min Rain = 0
KGO1 061725Z 19011KT 23/13 A2996 RMK A01 T02280125  RH  052%=      5-min Rain = 0
KGO1 061726Z 20011KT 23/13 A2996 RMK A01 T02290125  RH  052%=      5-min Rain = 0
KGO1 061727Z 20011KT 23/13 A2996 RMK A01 T02290127  RH  053%=      5-min Rain = 0
KGO1 061728Z 21008KT 23/13 A2996 RMK A01 T02310129  RH  053%=      5-min Rain = 0
KGO1 061729Z 22007KT 23/13 A2996 RMK A01 T02340131  RH  052%=      5-min Rain = 0
KGO1 061730Z 23010KT 24/13 A2996 RMK A01 T02350128  RH  051%=      5-min Rain = 0
KGO1 061731Z 23012KT 24/12 A2996 RMK A01 T02350116  RH  047%=      5-min Rain = 0
KGO1 061732Z 24011KT 23/11 A2996 RMK A01 T02320114  RH  047%=      5-min Rain = 0
KGO1 061733Z 23012KT 23/12 A2996 RMK A01 T02310116  RH  048%=      5-min Rain = 0
KGO1 061734Z 23010KT 23/12 A2996 RMK A01 T02330117  RH  048%=      5-min Rain = 0
KGO1 061735Z 23012KT 23/12 A2996 RMK A01 T02340117  RH  048%=      5-min Rain = 0
KGO1 061736Z 23010KT 24/12 A2996 RMK A01 T02350119  RH  048%=      5-min Rain = 0
KGO1 061737Z 24010KT 24/11 A2996 RMK A01 T02360113  RH  046%=      5-min Rain = 0
KGO1 061738Z 22012KT 24/12 A2996 RMK A01 T02370115  RH  046%=      5-min Rain = 0
KGO1 061739Z 23014G19KT 24/11 A2996 RMK A01 T02380106  RH  043%=      5-min Rain = 0
KGO1 061740Z 23013KT 24/10 A2996 RMK A01 T02350100  RH  042%=      5-min Rain = 0
KGO1 061741Z 24013KT 23/10 A2996 RMK A01 T02320103  RH  044%=      5-min Rain = 0
KGO1 061742Z 24014KT 23/11 A2996 RMK A01 T02320107  RH  045%=      5-min Rain = 0
KGO1 061743Z 24012KT 23/10 A2996 RMK A01 T02300103  RH  044%=      5-min Rain = 0
KGO1 061744Z 24014KT 23/11 A2996 RMK A01 T02290105  RH  045%=      5-min Rain = 0
KGO1 061745Z 24012KT 23/11 A2996 RMK A01 T02320106  RH  045%=      5-min Rain = 0
KGO1 061746Z 23011KT 23/11 A2996 RMK A01 T02330106  RH  045%=      5-min Rain = 0
KGO1 061747Z 23011KT 24/11 A2996 RMK A01 T02350108  RH  045%=      5-min Rain = 0
KGO1 061748Z 21010KT 24/11 A2996 RMK A01 T02360109  RH  045%=      5-min Rain = 0
KGO1 061749Z 19008KT 24/12 A2996 RMK A01 T02350118  RH  048%=      5-min Rain = 0
KGO1 061750Z 19008KT 24/12 A2995 RMK A01 T02350123  RH  049%=      5-min Rain = 0
KGO1 061751Z 20008KT 24/12 A2995 RMK A01 T02360124  RH  050%=      5-min Rain = 0
KGO1 061752Z 19009KT 24/12 A2995 RMK A01 T02360124  RH  049%=      5-min Rain = 0
KGO1 061753Z 18009KT 24/12 A2995 RMK A01 T02360116  RH  047%=      5-min Rain = 0
KGO1 061754Z 21015G20KT 23/12 A2995 RMK A01 T02330116  RH  048%=      5-min Rain = 0
KGO1 061755Z 21015KT 23/11 A2996 RMK A01 T02340109  RH  045%=      5-min Rain = 0
KGO1 061756Z 22014KT 23/11 A2996 RMK A01 T02340106  RH  044%=      5-min Rain = 0
KGO1 061757Z 21014KT 23/11 A2996 RMK A01 T02340110  RH  046%=      5-min Rain = 0
KGO1 061758Z 19015KT 23/11 A2996 RMK A01 T02300112  RH  047%=      5-min Rain = 0
KGO1 061759Z 19016KT 23/11 A2996 RMK A01 T02300112  RH  047%=      5-min Rain = 0
KGO1 061800Z 19016KT 23/11 A2996 RMK A01 T02300114  RH  048%=      5-min Rain = 0
KGO1 061801Z 19018KT 23/11 A2996 RMK A01 T02310112  RH  047%=      5-min Rain = 0
KGO1 061802Z 19017KT 23/11 A2996 RMK A01 T02310113  RH  047%=      5-min Rain = 0
KGO1 061803Z 19015KT 23/11 A2996 RMK A01 T02330112  RH  046%=      5-min Rain = 0
KGO1 061804Z 19014KT 23/11 A2996 RMK A01 T02340113  RH  047%=      5-min Rain = 0
KGO1 061805Z 20012KT 23/11 A2996 RMK A01 T02330114  RH  047%=      5-min Rain = 0
KGO1 061806Z 21014G20KT 23/12 A2996 RMK A01 T02340116  RH  047%=      5-min Rain = 0
KGO1 061807Z 20013KT 24/12 A2996 RMK A01 T02360116  RH  047%=      5-min Rain = 0
KGO1 061808Z 20014KT 24/11 A2996 RMK A01 T02370114  RH  046%=      5-min Rain = 0
KGO1 061809Z 19011KT 24/12 A2996 RMK A01 T02370116  RH  047%=      5-min Rain = 0
KGO1 061810Z 20013KT 24/12 A2995 RMK A01 T02370118  RH  047%=      5-min Rain = 0
KGO1 061811Z 18012KT 24/12 A2995 RMK A01 T02370122  RH  048%=      5-min Rain = 0
KGO1 061812Z 18017KT 24/12 A2995 RMK A01 T02360121  RH  048%=      5-min Rain = 0
KGO1 061813Z 19014KT 23/12 A2995 RMK A01 T02340119  RH  048%=      5-min Rain = 0
KGO1 061814Z 19011KT 23/12 A2995 RMK A01 T02330119  RH  049%=      5-min Rain = 0
KGO1 061815Z 17011KT 23/13 A2995 RMK A01 T02320127  RH  052%=      5-min Rain = 0
KGO1 061816Z 17013KT 24/13 A2995 RMK A01 T02350127  RH  050%=      5-min Rain = 0
KGO1 061817Z 18016KT 24/13 A2995 RMK A01 T02350125  RH  050%=      5-min Rain = 0
KGO1 061818Z 18016KT 23/12 A2995 RMK A01 T02330121  RH  049%=      5-min Rain = 0
KGO1 061819Z 17015KT 23/13 A2995 RMK A01 T02310125  RH  051%=      5-min Rain = 0
KGO1 061820Z 17012KT 23/13 A2995 RMK A01 T02310126  RH  052%=      5-min Rain = 0
KGO1 061821Z 17011KT 23/12 A2995 RMK A01 T02310124  RH  051%=      5-min Rain = 0
KGO1 061822Z 17013KT 23/12 A2995 RMK A01 T02280124  RH  052%=      5-min Rain = 0
KGO1 061823Z 18014KT 23/13 A2995 RMK A01 T02290130  RH  053%=      5-min Rain = 0
KGO1 061824Z 19014KT 23/13 A2995 RMK A01 T02320126  RH  051%=      5-min Rain = 0
KGO1 061825Z 18014KT 23/13 A2995 RMK A01 T02310126  RH  051%=      5-min Rain = 0
KGO1 061826Z 18014KT 23/13 A2995 RMK A01 T02290125  RH  052%=      5-min Rain = 0
KGO1 061827Z 18010KT 23/13 A2995 RMK A01 T02290127  RH  052%=      5-min Rain = 0
KGO1 061828Z 19010KT 23/13 A2995 RMK A01 T02280130  RH  054%=      5-min Rain = 0
KGO1 061829Z 19014KT 23/13 A2995 RMK A01 T02300129  RH  053%=      5-min Rain = 0
KGO1 061830Z 20012KT 23/13 A2995 RMK A01 T02300127  RH  052%=      5-min Rain = 0
KGO1 061831Z 19012KT 23/13 A2995 RMK A01 T02290129  RH  053%=      5-min Rain = 0
KGO1 061832Z 17013KT 23/13 A2995 RMK A01 T02280127  RH  053%=      5-min Rain = 0
KGO1 061833Z 17013KT 23/13 A2995 RMK A01 T02310129  RH  053%=      5-min Rain = 0
KGO1 061834Z 19012KT 23/13 A2995 RMK A01 T02330133  RH  053%=      5-min Rain = 0
KGO1 061835Z 18014KT 24/13 A2994 RMK A01 T02360131  RH  052%=      5-min Rain = 0
KGO1 061836Z 18013KT 24/13 A2994 RMK A01 T02370132  RH  052%=      5-min Rain = 0
KGO1 061837Z 17011KT 24/13 A2994 RMK A01 T02360129  RH  051%=      5-min Rain = 0
KGO1 061838Z 20012KT 24/13 A2994 RMK A01 T02350129  RH  051%=      5-min Rain = 0
KGO1 061839Z 18013KT 23/13 A2994 RMK A01 T02340129  RH  052%=      5-min Rain = 0
KGO1 061840Z 20012KT 23/13 A2994 RMK A01 T02340129  RH  052%=      5-min Rain = 0
KGO1 061841Z 21014KT 23/12 A2994 RMK A01 T02340124  RH  050%=      5-min Rain = 0
KGO1 061842Z 19014KT 23/12 A2994 RMK A01 T02320124  RH  050%=      5-min Rain = 0
KGO1 061843Z 19015KT 23/12 A2994 RMK A01 T02310123  RH  051%=      5-min Rain = 0
KGO1 061844Z 19018KT 23/12 A2994 RMK A01 T02300124  RH  051%=      5-min Rain = 0
KGO1 061845Z 20015KT 23/12 A2994 RMK A01 T02290122  RH  051%=      5-min Rain = 0
KGO1 061846Z 19016KT 23/12 A2994 RMK A01 T02280123  RH  052%=      5-min Rain = 0
KGO1 061847Z 19018KT 23/13 A2994 RMK A01 T02280125  RH  052%=      5-min Rain = 0
KGO1 061848Z 19017KT 23/12 A2994 RMK A01 T02290123  RH  051%=      5-min Rain = 0
KGO1 061849Z 19016KT 23/13 A2994 RMK A01 T02300125  RH  051%=      5-min Rain = 0
KGO1 061850Z 20015KT 23/13 A2994 RMK A01 T02300126  RH  052%=      5-min Rain = 0
KGO1 061851Z 19016G21KT 23/12 A2994 RMK A01 T02320124  RH  051%=      5-min Rain = 0
KGO1 061852Z 19015G21KT 23/12 A2994 RMK A01 T02310122  RH  050%=      5-min Rain = 0
KGO1 061853Z 19016KT 23/12 A2994 RMK A01 T02310122  RH  050%=      5-min Rain = 0
KGO1 061854Z 19018G23KT 23/12 A2994 RMK A01 T02290119  RH  050%=      5-min Rain = 0
KGO1 061855Z 19016KT 23/12 A2994 RMK A01 T02280119  RH  050%=      5-min Rain = 0
KGO1 061856Z 19017KT 23/12 A2994 RMK A01 T02280119  RH  050%=      5-min Rain = 0
KGO1 061857Z 20014KT 23/12 A2994 RMK A01 T02280120  RH  051%=      5-min Rain = 0
KGO1 061858Z 20015KT 23/12 A2994 RMK A01 T02290119  RH  050%=      5-min Rain = 0
KGO1 061859Z 20016KT 23/12 A2994 RMK A01 T02310115  RH  048%=      5-min Rain = 0
KGO1 061900Z 20018KT 23/12 A2994 RMK A01 T02320118  RH  049%=      5-min Rain = 0
KGO1 061901Z 20015KT 23/12 A2994 RMK A01 T02330119  RH  049%=      5-min Rain = 0
KGO1 061902Z 20013KT 23/12 A2994 RMK A01 T02340122  RH  049%=      5-min Rain = 0
KGO1 061903Z 20015KT 24/12 A2994 RMK A01 T02350120  RH  048%=      5-min Rain = 0
KGO1 061904Z 20016KT 24/11 A2994 RMK A01 T02370113  RH  046%=      5-min Rain = 0
KGO1 061905Z 20015KT 24/12 A2994 RMK A01 T02360116  RH  047%=      5-min Rain = 0
KGO1 061906Z 21014KT 23/12 A2994 RMK A01 T02340119  RH  048%=      5-min Rain = 0
KGO1 061907Z 21014KT 24/11 A2994 RMK A01 T02350109  RH  045%=      5-min Rain = 0
KGO1 061908Z 22016KT 24/11 A2994 RMK A01 T02360113  RH  046%=      5-min Rain = 0
KGO1 061909Z 20013KT 24/12 A2994 RMK A01 T02360115  RH  047%=      5-min Rain = 0
KGO1 061910Z 20013KT 24/12 A2994 RMK A01 T02360118  RH  048%=      5-min Rain = 0
KGO1 061911Z 20011KT 24/12 A2994 RMK A01 T02360117  RH  047%=      5-min Rain = 0
KGO1 061912Z 18015KT 24/12 A2994 RMK A01 T02360117  RH  047%=      5-min Rain = 0
KGO1 061913Z 19015KT 24/11 A2994 RMK A01 T02370112  RH  045%=      5-min Rain = 0
KGO1 061914Z 19015KT 24/11 A2994 RMK A01 T02360108  RH  044%=      5-min Rain = 0
KGO1 061915Z 19013KT 24/11 A2994 RMK A01 T02360109  RH  045%=      5-min Rain = 0
KGO1 061916Z 21015KT 24/11 A2994 RMK A01 T02380106  RH  043%=      5-min Rain = 0
KGO1 061917Z 20015KT 24/10 A2994 RMK A01 T02410101  RH  041%=      5-min Rain = 0
KGO1 061918Z 20013KT 24/10 A2994 RMK A01 T02420100  RH  041%=      5-min Rain = 0
KGO1 061919Z 21015KT 24/10 A2993 RMK A01 T02440103  RH  041%=      5-min Rain = 0
KGO1 061920Z 21013KT 25/10 A2993 RMK A01 T02450098  RH  039%=      5-min Rain = 0
KGO1 061921Z 21011KT 24/10 A2993 RMK A01 T02430103  RH  041%=      5-min Rain = 0
KGO1 061922Z 21015KT 25/11 A2993 RMK A01 T02450106  RH  041%=      5-min Rain = 0
KGO1 061923Z 21010KT 25/10 A2993 RMK A01 T02450102  RH  041%=      5-min Rain = 0
KGO1 061924Z 20009KT 24/10 A2993 RMK A01 T02430104  RH  042%=      5-min Rain = 0
KGO1 061925Z 20011KT 24/11 A2993 RMK A01 T02440107  RH  042%=      5-min Rain = 0
KGO1 061926Z 20013KT 25/10 A2993 RMK A01 T02460103  RH  041%=      5-min Rain = 0
KGO1 061927Z 19016KT 25/10 A2993 RMK A01 T02470099  RH  039%=      5-min Rain = 0
KGO1 061928Z 20013KT 25/10 A2993 RMK A01 T02470098  RH  039%=      5-min Rain = 0
KGO1 061929Z 22012KT 25/10 A2993 RMK A01 T02480096  RH  038%=      5-min Rain = 0
KGO1 061930Z 21014KT 25/10 A2993 RMK A01 T02500102  RH  039%=      5-min Rain = 0
KGO1 061931Z 20017KT 25/11 A2993 RMK A01 T02510105  RH  040%=      5-min Rain = 0
KGO1 061932Z 20018G23KT 25/10 A2993 RMK A01 T02520102  RH  039%=      5-min Rain = 0
KGO1 061933Z 20014KT 25/10 A2993 RMK A01 T02510102  RH  039%=      5-min Rain = 0
KGO1 061934Z 21016KT 25/12 A2993 RMK A01 T02540115  RH  042%=      5-min Rain = 0
KGO1 061935Z 21017KT 26/11 A2993 RMK A01 T02570105  RH  038%=      5-min Rain = 0
KGO1 061936Z 20014KT 26/10 A2993 RMK A01 T02550099  RH  037%=      5-min Rain = 0
KGO1 061937Z 20012G17KT 26/11 A2993 RMK A01 T02550111  RH  040%=      5-min Rain = 0
KGO1 061938Z 20012KT 26/12 A2993 RMK A01 T02570116  RH  041%=      5-min Rain = 0
KGO1 061939Z 20015KT 26/10 A2993 RMK A01 T02580101  RH  037%=      5-min Rain = 0
KGO1 061940Z 21016KT 26/10 A2993 RMK A01 T02550100  RH  038%=      5-min Rain = 0
KGO1 061941Z 21014KT 25/09 A2993 RMK A01 T02540094  RH  037%=      5-min Rain = 0
KGO1 061942Z 21012KT 25/10 A2993 RMK A01 T02530096  RH  037%=      5-min Rain = 0
KGO1 061943Z 20011KT 25/11 A2993 RMK A01 T02530106  RH  040%=      5-min Rain = 0
KGO1 061944Z 20012G19KT 25/11 A2993 RMK A01 T02530112  RH  041%=      5-min Rain = 0
KGO1 061945Z 19016KT 26/11 A2993 RMK A01 T02550107  RH  039%=      5-min Rain = 0
KGO1 061946Z 21016KT 26/11 A2992 RMK A01 T02550108  RH  040%=      5-min Rain = 0
KGO1 061947Z 21015KT 26/11 A2992 RMK A01 T02550105  RH  039%=      5-min Rain = 0
KGO1 061948Z 20013KT 25/10 A2992 RMK A01 T02540102  RH  038%=      5-min Rain = 0
KGO1 061949Z 20012KT 26/11 A2992 RMK A01 T02560107  RH  039%=      5-min Rain = 0
KGO1 061950Z 21014KT 26/09 A2992 RMK A01 T02590094  RH  035%=      5-min Rain = 0
KGO1 061951Z 21014KT 26/09 A2992 RMK A01 T02590090  RH  034%=      5-min Rain = 0
KGO1 061952Z 21017KT 26/10 A2992 RMK A01 T02590101  RH  037%=      5-min Rain = 0
KGO1 061953Z 21014G19KT 26/11 A2992 RMK A01 T02590110  RH  039%=      5-min Rain = 0
KGO1 061954Z 21016KT 26/11 A2992 RMK A01 T02570109  RH  039%=      5-min Rain = 0
KGO1 061955Z 21015KT 25/11 A2992 RMK A01 T02540107  RH  040%=      5-min Rain = 0
KGO1 061956Z 20017KT 25/11 A2992 RMK A01 T02530108  RH  040%=      5-min Rain = 0
KGO1 061957Z 19014G19KT 25/11 A2992 RMK A01 T02520110  RH  041%=      5-min Rain = 0
KGO1 061958Z 19017KT 25/11 A2992 RMK A01 T02510108  RH  041%=      5-min Rain = 0
KGO1 061959Z 20016G21KT 25/10 A2992 RMK A01 T02530103  RH  039%=      5-min Rain = 0
KGO1 062000Z 19015KT 26/10 A2992 RMK A01 T02550101  RH  038%=      5-min Rain = 0
KGO1 062001Z 19018KT 26/08 A2992 RMK A01 T02570080  RH  033%=      5-min Rain = 0
KGO1 062002Z 20016KT 26/09 A2992 RMK A01 T02560087  RH  034%=      5-min Rain = 0
KGO1 062003Z 20013KT 26/09 A2992 RMK A01 T02570088  RH  034%=      5-min Rain = 0
KGO1 062004Z 21015KT 26/09 A2992 RMK A01 T02600086  RH  033%=      5-min Rain = 0
KGO1 062005Z 20018KT 26/10 A2992 RMK A01 T02590098  RH  036%=      5-min Rain = 0
KGO1 062006Z 21015KT 26/10 A2992 RMK A01 T02550095  RH  036%=      5-min Rain = 0
KGO1 062007Z 22014KT 25/09 A2992 RMK A01 T02540091  RH  035%=      5-min Rain = 0
KGO1 062008Z 22014KT 26/10 A2992 RMK A01 T02570101  RH  038%=      5-min Rain = 0
KGO1 062009Z 21012KT 26/11 A2992 RMK A01 T02570106  RH  039%=      5-min Rain = 0
KGO1 062010Z 22016KT 26/08 A2992 RMK A01 T02560084  RH  034%=      5-min Rain = 0
KGO1 062011Z 22012KT 26/08 A2992 RMK A01 T02550083  RH  034%=      5-min Rain = 0
KGO1 062012Z 20017KT 26/09 A2992 RMK A01 T02560087  RH  034%=      5-min Rain = 0
KGO1 062013Z 20015KT 26/07 A2992 RMK A01 T02560073  RH  031%=      5-min Rain = 0
KGO1 062014Z 21014KT 26/08 A2992 RMK A01 T02550078  RH  032%=      5-min Rain = 0
KGO1 062015Z 20013G18KT 26/07 A2992 RMK A01 T02550070  RH  031%=      5-min Rain = 0
KGO1 062016Z 20017KT 25/07 A2992 RMK A01 T02540070  RH  031%=      5-min Rain = 0
KGO1 062017Z 21015KT 25/07 A2992 RMK A01 T02540067  RH  030%=      5-min Rain = 0
KGO1 062018Z 21014KT 25/06 A2992 RMK A01 T02540060  RH  029%=      5-min Rain = 0
KGO1 062019Z 21012KT 25/06 A2992 RMK A01 T02530060  RH  029%=      5-min Rain = 0
KGO1 062020Z 20013KT 25/07 A2992 RMK A01 T02530068  RH  031%=      5-min Rain = 0
KGO1 062021Z 19014KT 25/08 A2992 RMK A01 T02540079  RH  033%=      5-min Rain = 0
KGO1 062022Z 21013KT 26/07 A2992 RMK A01 T02550065  RH  030%=      5-min Rain = 0
KGO1 062023Z 20014KT 25/06 A2992 RMK A01 T02540059  RH  029%=      5-min Rain = 0
KGO1 062024Z 20013KT 25/08 A2991 RMK A01 T02530077  RH  033%=      5-min Rain = 0
KGO1 062025Z 21015KT 26/09 A2991 RMK A01 T02560090  RH  035%=      5-min Rain = 0
KGO1 062026Z 20015G21KT 26/09 A2991 RMK A01 T02590094  RH  035%=      5-min Rain = 0
KGO1 062027Z 20010KT 26/10 A2991 RMK A01 T02570099  RH  037%=      5-min Rain = 0
KGO1 062028Z 21013KT 26/10 A2991 RMK A01 T02570102  RH  038%=      5-min Rain = 0
KGO1 062029Z 21012KT 26/10 A2991 RMK A01 T02560096  RH  036%=      5-min Rain = 0
KGO1 062030Z 19015KT 25/10 A2991 RMK A01 T02540097  RH  037%=      5-min Rain = 0
KGO1 062031Z 17014KT 25/10 A2991 RMK A01 T02540099  RH  038%=      5-min Rain = 0
KGO1 062032Z 18012KT 25/10 A2991 RMK A01 T02530097  RH  037%=      5-min Rain = 0
KGO1 062033Z 16015KT 25/10 A2991 RMK A01 T02520103  RH  039%=      5-min Rain = 0
KGO1 062034Z 17015KT 25/11 A2991 RMK A01 T02510109  RH  041%=      5-min Rain = 0
KGO1 062035Z 17017KT 25/11 A2991 RMK A01 T02500110  RH  041%=      5-min Rain = 0
KGO1 062036Z 17013KT 25/11 A2991 RMK A01 T02500109  RH  041%=      5-min Rain = 0
KGO1 062037Z 18012KT 25/11 A2991 RMK A01 T02490114  RH  043%=      5-min Rain = 0
KGO1 062038Z 18015KT 25/12 A2991 RMK A01 T02530118  RH  043%=      5-min Rain = 0
KGO1 062039Z 18018KT 26/11 A2991 RMK A01 T02560112  RH  040%=      5-min Rain = 0
KGO1 062040Z 19013KT 25/11 A2991 RMK A01 T02540109  RH  040%=      5-min Rain = 0
KGO1 062041Z 20012KT 25/11 A2991 RMK A01 T02530113  RH  042%=      5-min Rain = 0
KGO1 062042Z 21013KT 26/11 A2991 RMK A01 T02550106  RH  039%=      5-min Rain = 0
KGO1 062043Z 22011KT 25/10 A299 RMK A01 T02540104  RH  039%=      5-min Rain = 0
KGO1 062044Z 19010KT 25/11 A2991 RMK A01 T02540113  RH  041%=      5-min Rain = 0
KGO1 062045Z 18013KT 26/12 A2991 RMK A01 T02550115  RH  042%=      5-min Rain = 0
KGO1 062046Z 18013KT 26/11 A2991 RMK A01 T02570110  RH  040%=      5-min Rain = 0
KGO1 062047Z 20013KT 26/09 A2991 RMK A01 T02580088  RH  034%=      5-min Rain = 0
KGO1 062048Z 20014KT 26/08 A299 RMK A01 T02600078  RH  031%=      5-min Rain = 0
KGO1 062049Z 21015KT 26/07 A299 RMK A01 T02600067  RH  029%=      5-min Rain = 0
KGO1 062050Z 21018KT 26/07 A299 RMK A01 T02600074  RH  031%=      5-min Rain = 0
KGO1 062051Z 20014KT 26/07 A299 RMK A01 T02600074  RH  031%=      5-min Rain = 0
KGO1 062052Z 18013KT 26/08 A299 RMK A01 T02600081  RH  032%=      5-min Rain = 0
KGO1 062053Z 19013KT 26/07 A299 RMK A01 T02600072  RH  030%=      5-min Rain = 0
KGO1 062054Z 19015KT 26/08 A299 RMK A01 T02600076  RH  031%=      5-min Rain = 0
KGO1 062055Z 20013KT 26/08 A299 RMK A01 T02600080  RH  032%=      5-min Rain = 0
KGO1 062056Z 20012KT 26/08 A299 RMK A01 T02600078  RH  031%=      5-min Rain = 0
KGO1 062057Z 19010KT 26/08 A299 RMK A01 T02620081  RH  032%=      5-min Rain = 0
KGO1 062058Z 19015G21KT 26/07 A299 RMK A01 T02640071  RH  029%=      5-min Rain = 0
KGO1 062059Z 18017KT 26/08 A299 RMK A01 T02630076  RH  031%=      5-min Rain = 0
KGO1 062100Z 18019KT 26/08 A299 RMK A01 T02600078  RH  032%=      5-min Rain = 0
KGO1 062101Z 17014KT 26/08 A299 RMK A01 T02570078  RH  032%=      5-min Rain = 0
KGO1 062102Z 18013KT 26/08 A299 RMK A01 T02570079  RH  032%=      5-min Rain = 0
KGO1 062103Z 18014KT 26/08 A2989 RMK A01 T02590080  RH  032%=      5-min Rain = 0
KGO1 062104Z 18015KT 26/08 A2989 RMK A01 T02600077  RH  031%=      5-min Rain = 0
KGO1 062105Z 19018KT 26/08 A2989 RMK A01 T02600076  RH  031%=      5-min Rain = 0
KGO1 062106Z 19020KT 26/07 A2989 RMK A01 T02600073  RH  030%=      5-min Rain = 0
KGO1 062107Z 19018KT 26/07 A299 RMK A01 T02570071  RH  030%=      5-min Rain = 0
KGO1 062108Z 20015KT 26/07 A299 RMK A01 T02560074  RH  031%=      5-min Rain = 0
KGO1 062109Z 20012KT 26/08 A299 RMK A01 T02590078  RH  032%=      5-min Rain = 0
KGO1 062110Z 20015KT 26/08 A299 RMK A01 T02640082  RH  032%=      5-min Rain = 0
KGO1 062111Z 20013KT 27/08 A2989 RMK A01 T02660075  RH  030%=      5-min Rain = 0
KGO1 062112Z 20015KT 26/07 A2989 RMK A01 T02640073  RH  030%=      5-min Rain = 0
KGO1 062113Z 21018KT 26/07 A2989 RMK A01 T02630067  RH  029%=      5-min Rain = 0
KGO1 062114Z 19018KT 26/07 A2989 RMK A01 T02630070  RH  029%=      5-min Rain = 0
KGO1 062115Z 19018KT 27/07 A2989 RMK A01 T02650073  RH  030%=      5-min Rain = 0
KGO1 062116Z 18017KT 27/07 A2989 RMK A01 T02660074  RH  030%=      5-min Rain = 0
KGO1 062117Z 19015G21KT 27/08 A2989 RMK A01 T02660076  RH  030%=      5-min Rain = 0
KGO1 062118Z 20017G22KT 27/07 A2989 RMK A01 T02680069  RH  028%=      5-min Rain = 0
KGO1 062119Z 20018KT 27/07 A2989 RMK A01 T02670067  RH  028%=      5-min Rain = 0
KGO1 062120Z 20017KT 27/07 A2989 RMK A01 T02660071  RH  029%=      5-min Rain = 0
KGO1 062121Z 20015KT 27/08 A2989 RMK A01 T02670076  RH  030%=      5-min Rain = 0
KGO1 062122Z 21014KT 27/07 A2989 RMK A01 T02690067  RH  028%=      5-min Rain = 0
KGO1 062123Z 18012G17KT 27/07 A2989 RMK A01 T02690073  RH  029%=      5-min Rain = 0
KGO1 062124Z 18018KT 27/07 A2989 RMK A01 T02700068  RH  028%=      5-min Rain = 0
KGO1 062125Z 19016KT 27/07 A2989 RMK A01 T02690067  RH  028%=      5-min Rain = 0
KGO1 062126Z 19018KT 27/06 A2989 RMK A01 T02680060  RH  027%=      5-min Rain = 0
KGO1 062127Z 20015KT 27/06 A2989 RMK A01 T02650061  RH  027%=      5-min Rain = 0
KGO1 062128Z 21015KT 26/07 A2989 RMK A01 T02630066  RH  028%=      5-min Rain = 0
KGO1 062129Z 21014G19KT 26/07 A2989 RMK A01 T02610065  RH  029%=      5-min Rain = 0
KGO1 062130Z 21017KT 26/07 A2989 RMK A01 T02610067  RH  029%=      5-min Rain = 0
KGO1 062131Z 20017KT 26/07 A2989 RMK A01 T02610068  RH  029%=      5-min Rain = 0
KGO1 062132Z 19017KT 26/07 A2989 RMK A01 T02620070  RH  029%=      5-min Rain = 0
KGO1 062133Z 19013KT 26/07 A2989 RMK A01 T02620071  RH  030%=      5-min Rain = 0
KGO1 062134Z 20013KT 26/07 A2988 RMK A01 T02630068  RH  029%=      5-min Rain = 0
KGO1 062135Z 19011KT 27/08 A2988 RMK A01 T02650076  RH  030%=      5-min Rain = 0
KGO1 062136Z 19013KT 27/07 A2988 RMK A01 T02680068  RH  028%=      5-min Rain = 0
KGO1 062137Z 20015KT 27/06 A2988 RMK A01 T02650064  RH  028%=      5-min Rain = 0
KGO1 062138Z 20015KT 26/07 A2988 RMK A01 T02640067  RH  028%=      5-min Rain = 0
KGO1 062139Z 20014KT 27/07 A2988 RMK A01 T02660067  RH  028%=      5-min Rain = 0
KGO1 062140Z 19014KT 27/07 A2988 RMK A01 T02680072  RH  029%=      5-min Rain = 0
KGO1 062141Z 19019KT 27/07 A2988 RMK A01 T02690074  RH  029%=      5-min Rain = 0
KGO1 062142Z 20020KT 27/07 A2988 RMK A01 T02690070  RH  028%=      5-min Rain = 0
KGO1 062143Z 20018KT 27/07 A2988 RMK A01 T02680068  RH  028%=      5-min Rain = 0
KGO1 062144Z 21015KT 27/07 A2988 RMK A01 T02670068  RH  028%=      5-min Rain = 0
KGO1 062145Z 21014KT 27/06 A2989 RMK A01 T02670064  RH  027%=      5-min Rain = 0
KGO1 062146Z 20013KT 27/06 A2989 RMK A01 T02670059  RH  027%=      5-min Rain = 0
KGO1 062147Z 20013KT 27/06 A2989 RMK A01 T02650064  RH  028%=      5-min Rain = 0
KGO1 062148Z 21013KT 26/06 A2989 RMK A01 T02640063  RH  028%=      5-min Rain = 0
KGO1 062149Z 20014G19KT 26/07 A2989 RMK A01 T02620069  RH  029%=      5-min Rain = 0
KGO1 062150Z 19016KT 26/07 A2989 RMK A01 T02620070  RH  029%=      5-min Rain = 0
KGO1 062151Z 18017KT 26/07 A2988 RMK A01 T02620071  RH  030%=      5-min Rain = 0
KGO1 062152Z 19018KT 26/07 A2988 RMK A01 T02630072  RH  030%=      5-min Rain = 0
KGO1 062153Z 20017KT 27/06 A2988 RMK A01 T02650055  RH  026%=      5-min Rain = 0
KGO1 062154Z 21017KT 27/05 A2988 RMK A01 T02650045  RH  024%=      5-min Rain = 0
KGO1 062155Z 21016KT 26/05 A2988 RMK A01 T02630052  RH  026%=      5-min Rain = 0
KGO1 062156Z 22015KT 26/06 A2988 RMK A01 T02630057  RH  027%=      5-min Rain = 0
KGO1 062157Z 22014KT 26/06 A2988 RMK A01 T02620058  RH  027%=      5-min Rain = 0
KGO1 062158Z 23014KT 26/06 A2988 RMK A01 T02620061  RH  028%=      5-min Rain = 0
KGO1 062159Z 22015KT 26/06 A2988 RMK A01 T02630064  RH  028%=      5-min Rain = 0
KGO1 062200Z 21014KT 27/06 A2988 RMK A01 T02660060  RH  027%=      5-min Rain = 0
KGO1 062201Z 20014KT 27/06 A2988 RMK A01 T02670062  RH  027%=      5-min Rain = 0
KGO1 062202Z 20013KT 27/07 A2988 RMK A01 T02680065  RH  028%=      5-min Rain = 0
KGO1 062203Z 21014KT 27/07 A2988 RMK A01 T02680065  RH  027%=      5-min Rain = 0
KGO1 062204Z 20011KT 27/07 A2988 RMK A01 T02680066  RH  028%=      5-min Rain = 0
KGO1 062205Z 21011KT 27/07 A2988 RMK A01 T02690070  RH  028%=      5-min Rain = 0
KGO1 062206Z 21010KT 27/07 A2988 RMK A01 T02700072  RH  029%=      5-min Rain = 0
KGO1 062207Z 20013KT 27/07 A2988 RMK A01 T02710072  RH  028%=      5-min Rain = 0
KGO1 062208Z 21017KT 27/07 A2988 RMK A01 T02710068  RH  027%=      5-min Rain = 0
KGO1 062209Z 22016KT 27/06 A2988 RMK A01 T02690061  RH  027%=      5-min Rain = 0
KGO1 062210Z 21012KT 27/06 A2988 RMK A01 T02650055  RH  026%=      5-min Rain = 0
KGO1 062211Z 20013KT 26/06 A2988 RMK A01 T02630059  RH  027%=      5-min Rain = 0
KGO1 062212Z 19013KT 26/07 A2988 RMK A01 T02630068  RH  029%=      5-min Rain = 0
KGO1 062213Z 21015G20KT 26/07 A2988 RMK A01 T02620070  RH  029%=      5-min Rain = 0
KGO1 062214Z 21015KT 26/06 A2988 RMK A01 T02620064  RH  028%=      5-min Rain = 0
KGO1 062215Z 20013KT 26/07 A2988 RMK A01 T02600065  RH  029%=      5-min Rain = 0
KGO1 062216Z 20014G19KT 26/07 A2988 RMK A01 T02600065  RH  029%=      5-min Rain = 0
KGO1 062217Z 21016KT 26/06 A2988 RMK A01 T02610060  RH  028%=      5-min Rain = 0
KGO1 062218Z 21014KT 26/05 A2988 RMK A01 T02620052  RH  026%=      5-min Rain = 0
KGO1 062219Z 22012KT 26/05 A2987 RMK A01 T02610052  RH  026%=      5-min Rain = 0
KGO1 062220Z 22013KT 26/05 A2987 RMK A01 T02610054  RH  026%=      5-min Rain = 0
KGO1 062221Z 20013KT 26/06 A2987 RMK A01 T02610056  RH  027%=      5-min Rain = 0
KGO1 062222Z 20013KT 26/06 A2987 RMK A01 T02630059  RH  027%=      5-min Rain = 0
KGO1 062223Z 20012KT 26/06 A2987 RMK A01 T02640059  RH  027%=      5-min Rain = 0
KGO1 062224Z 21011KT 26/06 A2987 RMK A01 T02640059  RH  027%=      5-min Rain = 0
KGO1 062225Z 21011KT 26/06 A2987 RMK A01 T02640057  RH  027%=      5-min Rain = 0
KGO1 062226Z 20012KT 26/06 A2987 RMK A01 T02640060  RH  027%=      5-min Rain = 0
KGO1 062227Z 20011KT 27/07 A2987 RMK A01 T02660066  RH  028%=      5-min Rain = 0
KGO1 062228Z 19015KT 27/07 A2987 RMK A01 T02690070  RH  028%=      5-min Rain = 0
KGO1 062229Z 20013KT 27/07 A2987 RMK A01 T02680071  RH  029%=      5-min Rain = 0
KGO1 062230Z 20014KT 27/08 A2987 RMK A01 T02690076  RH  029%=      5-min Rain = 0
KGO1 062231Z 20015KT 27/07 A2987 RMK A01 T02690073  RH  029%=      5-min Rain = 0
KGO1 062232Z 21017KT 27/07 A2987 RMK A01 T02660071  RH  029%=      5-min Rain = 0
KGO1 062233Z 21017KT 26/07 A2987 RMK A01 T02630068  RH  029%=      5-min Rain = 0
KGO1 062234Z 20016KT 26/07 A2987 RMK A01 T02600067  RH  029%=      5-min Rain = 0
KGO1 062235Z 20017G22KT 26/07 A2987 RMK A01 T02600069  RH  030%=      5-min Rain = 0
KGO1 062236Z 20016KT 26/07 A2987 RMK A01 T02590067  RH  029%=      5-min Rain = 0
KGO1 062237Z 20016KT 26/07 A2987 RMK A01 T02580068  RH  030%=      5-min Rain = 0
KGO1 062238Z 20014KT 26/06 A2987 RMK A01 T02590064  RH  029%=      5-min Rain = 0
KGO1 062239Z 19014KT 26/07 A2987 RMK A01 T02590066  RH  029%=      5-min Rain = 0
KGO1 062240Z 18015KT 26/07 A2987 RMK A01 T02600065  RH  029%=      5-min Rain = 0
KGO1 062241Z 19013KT 26/07 A2987 RMK A01 T02600068  RH  029%=      5-min Rain = 0
KGO1 062242Z 19012KT 26/07 A2987 RMK A01 T02610066  RH  029%=      5-min Rain = 0
KGO1 062243Z 19014KT 26/07 A2987 RMK A01 T02610067  RH  029%=      5-min Rain = 0
KGO1 062244Z 19013G19KT 26/07 A2987 RMK A01 T02610068  RH  029%=      5-min Rain = 0
KGO1 062245Z 20017G23KT 26/07 A2987 RMK A01 T02610067  RH  029%=      5-min Rain = 0
KGO1 062246Z 19018KT 26/07 A2987 RMK A01 T02590065  RH  029%=      5-min Rain = 0
KGO1 062247Z 19018KT 26/07 A2987 RMK A01 T02570065  RH  029%=      5-min Rain = 0
KGO1 062248Z 18016KT 26/07 A2987 RMK A01 T02570065  RH  029%=      5-min Rain = 0
KGO1 062249Z 18018G23KT 26/07 A2987 RMK A01 T02560066  RH  030%=      5-min Rain = 0
KGO1 062250Z 18018KT 26/07 A2987 RMK A01 T02550069  RH  031%=      5-min Rain = 0
KGO1 062251Z 18016KT 25/07 A2987 RMK A01 T02530070  RH  031%=      5-min Rain = 0
KGO1 062252Z 18015KT 25/07 A2987 RMK A01 T02520070  RH  031%=      5-min Rain = 0
KGO1 062253Z 18015KT 25/07 A2987 RMK A01 T02510068  RH  031%=      5-min Rain = 0
KGO1 062254Z 18016KT 25/07 A2987 RMK A01 T02520069  RH  031%=      5-min Rain = 0
KGO1 062255Z 19016KT 25/07 A2987 RMK A01 T02530068  RH  031%=      5-min Rain = 0
KGO1 062256Z 19014KT 26/07 A2987 RMK A01 T02550071  RH  031%=      5-min Rain = 0
KGO1 062257Z 20015KT 26/07 A2987 RMK A01 T02580070  RH  030%=      5-min Rain = 0
KGO1 062258Z 19016KT 26/07 A2987 RMK A01 T02590070  RH  030%=      5-min Rain = 0
KGO1 062259Z 20016KT 26/07 A2987 RMK A01 T02600072  RH  030%=      5-min Rain = 0
KGO1 062300Z 20016KT 26/07 A2987 RMK A01 T02600068  RH  029%=      5-min Rain = 0
KGO1 062301Z 19014KT 26/07 A2987 RMK A01 T02600067  RH  029%=      5-min Rain = 0
KGO1 062302Z 19014KT 26/07 A2987 RMK A01 T02600068  RH  029%=      5-min Rain = 0
KGO1 062303Z 20017KT 26/07 A2987 RMK A01 T02590067  RH  029%=      5-min Rain = 0
KGO1 062304Z 19017KT 26/06 A2987 RMK A01 T02570062  RH  029%=      5-min Rain = 0
KGO1 062305Z 19016KT 26/07 A2987 RMK A01 T02560065  RH  030%=      5-min Rain = 0
KGO1 062306Z 18016G21KT 25/06 A2987 RMK A01 T02540063  RH  029%=      5-min Rain = 0
KGO1 062307Z 19017G22KT 25/06 A2987 RMK A01 T02530062  RH  029%=      5-min Rain = 0
KGO1 062308Z 19015KT 25/06 A2987 RMK A01 T02520064  RH  030%=      5-min Rain = 0
KGO1 062309Z 19015KT 25/07 A2987 RMK A01 T02520066  RH  030%=      5-min Rain = 0
KGO1 062310Z 19014KT 25/06 A2987 RMK A01 T02520064  RH  030%=      5-min Rain = 0
KGO1 062311Z 19017KT 25/07 A2987 RMK A01 T02510065  RH  030%=      5-min Rain = 0
KGO1 062312Z 19019KT 25/06 A2987 RMK A01 T02510062  RH  030%=      5-min Rain = 0
KGO1 062313Z 19019KT 25/06 A2987 RMK A01 T02510061  RH  030%=      5-min Rain = 0
KGO1 062314Z 19018KT 25/06 A2987 RMK A01 T02510060  RH  029%=      5-min Rain = 0
KGO1 062315Z 20015KT 25/06 A2987 RMK A01 T02510060  RH  029%=      5-min Rain = 0
KGO1 062316Z 20018KT 25/06 A2987 RMK A01 T02520060  RH  029%=      5-min Rain = 0
KGO1 062317Z 19013KT 25/06 A2987 RMK A01 T02530062  RH  029%=      5-min Rain = 0
KGO1 062318Z 19016KT 25/07 A2987 RMK A01 T02520065  RH  030%=      5-min Rain = 0
KGO1 062319Z 19017KT 25/06 A2987 RMK A01 T02520062  RH  029%=      5-min Rain = 0
KGO1 062320Z 19016KT 25/06 A2988 RMK A01 T02520063  RH  030%=      5-min Rain = 0
KGO1 062321Z 19016KT 25/07 A2988 RMK A01 T02510065  RH  030%=      5-min Rain = 0
KGO1 062322Z 19019KT 25/06 A2988 RMK A01 T02510063  RH  030%=      5-min Rain = 0
KGO1 062323Z 19017KT 25/06 A2988 RMK A01 T02510063  RH  030%=      5-min Rain = 0
KGO1 062324Z 19016KT 25/06 A2988 RMK A01 T02510063  RH  030%=      5-min Rain = 0
KGO1 062325Z 19015KT 25/06 A2988 RMK A01 T02510064  RH  030%=      5-min Rain = 0
KGO1 062326Z 19016KT 25/07 A2988 RMK A01 T02520066  RH  030%=      5-min Rain = 0
KGO1 062327Z 19013KT 25/07 A2988 RMK A01 T02520066  RH  030%=      5-min Rain = 0
KGO1 062328Z 19013KT 25/07 A2988 RMK A01 T02530068  RH  031%=      5-min Rain = 0
KGO1 062329Z 19011KT 25/07 A2988 RMK A01 T02530070  RH  031%=      5-min Rain = 0
KGO1 062330Z 19012G17KT 25/07 A2988 RMK A01 T02540070  RH  031%=      5-min Rain = 0
KGO1 062331Z 19013KT 25/07 A2988 RMK A01 T02540068  RH  030%=      5-min Rain = 0
KGO1 062332Z 19015KT 25/07 A2988 RMK A01 T02540066  RH  030%=      5-min Rain = 0
KGO1 062333Z 20016KT 25/06 A2988 RMK A01 T02540064  RH  030%=      5-min Rain = 0
KGO1 062334Z 19014KT 25/06 A2988 RMK A01 T02540064  RH  030%=      5-min Rain = 0
KGO1 062335Z 20015KT 25/06 A2988 RMK A01 T02530062  RH  029%=      5-min Rain = 0
KGO1 062336Z 19013KT 25/06 A2988 RMK A01 T02520060  RH  029%=      5-min Rain = 0
KGO1 062337Z 20013KT 25/06 A2988 RMK A01 T02520064  RH  030%=      5-min Rain = 0
KGO1 062338Z 20012KT 25/06 A2988 RMK A01 T02520063  RH  030%=      5-min Rain = 0
KGO1 062339Z 20014KT 25/06 A2988 RMK A01 T02520062  RH  030%=      5-min Rain = 0
KGO1 062340Z 20017G22KT 25/06 A2988 RMK A01 T02510059  RH  029%=      5-min Rain = 0
KGO1 062341Z 20017KT 25/06 A2988 RMK A01 T02510058  RH  029%=      5-min Rain = 0
KGO1 062342Z 20016KT 25/06 A2988 RMK A01 T02510057  RH  029%=      5-min Rain = 0
KGO1 062343Z 20018KT 25/06 A2988 RMK A01 T02500055  RH  028%=      5-min Rain = 0
KGO1 062344Z 20016KT 25/05 A2988 RMK A01 T02500054  RH  028%=      5-min Rain = 0
KGO1 062345Z 20014KT 25/05 A2988 RMK A01 T02490054  RH  029%=      5-min Rain = 0
KGO1 062346Z 20014KT 25/06 A2988 RMK A01 T02480056  RH  029%=      5-min Rain = 0
KGO1 062347Z 20014G19KT 25/06 A2988 RMK A01 T02480057  RH  029%=      5-min Rain = 0
KGO1 062348Z 20019KT 25/05 A2988 RMK A01 T02480053  RH  028%=      5-min Rain = 0
KGO1 062349Z 20015KT 25/05 A2988 RMK A01 T02470052  RH  028%=      5-min Rain = 0
KGO1 062350Z 20014KT 25/05 A2988 RMK A01 T02470052  RH  028%=      5-min Rain = 0
KGO1 062351Z 20014KT 25/05 A2988 RMK A01 T02480052  RH  028%=      5-min Rain = 0
KGO1 062352Z 21013KT 25/05 A2988 RMK A01 T02470052  RH  028%=      5-min Rain = 0
KGO1 062353Z 20012KT 25/06 A2988 RMK A01 T02480055  RH  029%=      5-min Rain = 0
KGO1 062354Z 20013KT 25/06 A2988 RMK A01 T02470055  RH  029%=      5-min Rain = 0
KGO1 062355Z 20011KT 25/05 A2988 RMK A01 T02470053  RH  029%=      5-min Rain = 0
KGO1 062356Z 20013KT 25/05 A2988 RMK A01 T02460054  RH  029%=      5-min Rain = 0
KGO1 062357Z 21014KT 25/05 A2988 RMK A01 T02470054  RH  029%=      5-min Rain = 0
KGO1 062358Z 21013KT 25/05 A2988 RMK A01 T02460051  RH  028%=      5-min Rain = 0
KGO1 062359Z 20012KT 25/05 A2988 RMK A01 T02470052  RH  028%=      5-min Rain = 0
KGO1 070000Z 20011KT 25/05 A2988 RMK A01 T02470053  RH  029%=      5-min Rain = 0
KGO1 070001Z 19010KT 25/06 A2988 RMK A01 T02470055  RH  029%=      5-min Rain = 0
KGO1 070002Z 19015KT 25/06 A2988 RMK A01 T02460055  RH  029%=      5-min Rain = 0
KGO1 070003Z 20012KT 25/05 A2988 RMK A01 T02460054  RH  029%=      5-min Rain = 0
KGO1 070004Z 19011KT 25/06 A2988 RMK A01 T02460057  RH  030%=      5-min Rain = 0
KGO1 070005Z 20013KT 25/06 A2988 RMK A01 T02450055  RH  029%=      5-min Rain = 0
KGO1 070006Z 20015KT 25/05 A2988 RMK A01 T02450054  RH  029%=      5-min Rain = 0
KGO1 070007Z 20015KT 25/05 A2988 RMK A01 T02450052  RH  029%=      5-min Rain = 0
KGO1 070008Z 19011KT 25/05 A2988 RMK A01 T02450054  RH  029%=      5-min Rain = 0
KGO1 070009Z 20012KT 24/06 A2988 RMK A01 T02440058  RH  030%=      5-min Rain = 0
KGO1 070010Z 19010KT 24/06 A2988 RMK A01 T02430056  RH  030%=      5-min Rain = 0
KGO1 070011Z 20012KT 24/06 A2988 RMK A01 T02430055  RH  030%=      5-min Rain = 0
KGO1 070012Z 19012KT 24/06 A2988 RMK A01 T02430055  RH  030%=      5-min Rain = 0
KGO1 070013Z 19014KT 24/06 A2988 RMK A01 T02430055  RH  030%=      5-min Rain = 0
KGO1 070014Z 20014KT 24/05 A2988 RMK A01 T02420052  RH  029%=      5-min Rain = 0
KGO1 070015Z 19013KT 24/05 A2988 RMK A01 T02420053  RH  029%=      5-min Rain = 0
KGO1 070016Z 20011KT 24/06 A2989 RMK A01 T02420055  RH  030%=      5-min Rain = 0
KGO1 070017Z 20012KT 24/06 A2989 RMK A01 T02410055  RH  030%=      5-min Rain = 0
KGO1 070018Z 19012KT 24/05 A2989 RMK A01 T02400054  RH  030%=      5-min Rain = 0
KGO1 070019Z 20012KT 24/05 A2989 RMK A01 T02400053  RH  030%=      5-min Rain = 0
KGO1 070020Z 20012KT 24/06 A2989 RMK A01 T02410055  RH  030%=      5-min Rain = 0
KGO1 070021Z 20011KT 24/06 A2989 RMK A01 T02400055  RH  030%=      5-min Rain = 0
KGO1 070022Z 20014KT 24/06 A2989 RMK A01 T02400055  RH  030%=      5-min Rain = 0
KGO1 070023Z 20014KT 24/06 A2989 RMK A01 T02400055  RH  030%=      5-min Rain = 0
KGO1 070024Z 20014KT 24/06 A2989 RMK A01 T02400056  RH  030%=      5-min Rain = 0
KGO1 070025Z 20015KT 24/06 A2989 RMK A01 T02400056  RH  031%=      5-min Rain = 0
KGO1 070026Z 20013KT 24/06 A2989 RMK A01 T02400057  RH  031%=      5-min Rain = 0
KGO1 070027Z 19012KT 24/06 A2989 RMK A01 T02400057  RH  031%=      5-min Rain = 0
KGO1 070028Z 19011KT 24/06 A2989 RMK A01 T02400057  RH  031%=      5-min Rain = 0
KGO1 070029Z 19012KT 24/06 A2989 RMK A01 T02390058  RH  031%=      5-min Rain = 0
KGO1 070030Z 19010KT 24/06 A2989 RMK A01 T02380058  RH  031%=      5-min Rain = 0
KGO1 070031Z 19011KT 24/06 A2989 RMK A01 T02370060  RH  032%=      5-min Rain = 0
KGO1 070032Z 19012KT 24/06 A2989 RMK A01 T02360059  RH  032%=      5-min Rain = 0
KGO1 070033Z 19012KT 24/06 A2989 RMK A01 T02360060  RH  032%=      5-min Rain = 0
KGO1 070034Z 19012KT 24/06 A2988 RMK A01 T02360061  RH  032%=      5-min Rain = 0
KGO1 070035Z 19010KT 24/06 A2988 RMK A01 T02360062  RH  033%=      5-min Rain = 0
KGO1 070036Z 19010KT 23/06 A2988 RMK A01 T02340063  RH  033%=      5-min Rain = 0
KGO1 070037Z 19011KT 23/06 A2988 RMK A01 T02330063  RH  033%=      5-min Rain = 0
KGO1 070038Z 19011KT 23/06 A2988 RMK A01 T02330063  RH  033%=      5-min Rain = 0
KGO1 070039Z 19009KT 23/06 A2988 RMK A01 T02330063  RH  033%=      5-min Rain = 0
KGO1 070040Z 19010KT 23/06 A2988 RMK A01 T02320064  RH  034%=      5-min Rain = 0
KGO1 070041Z 19010KT 23/06 A2988 RMK A01 T02310064  RH  034%=      5-min Rain = 0
KGO1 070042Z 19009KT 23/07 A2989 RMK A01 T02310065  RH  034%=      5-min Rain = 0
KGO1 070043Z 19009KT 23/07 A2989 RMK A01 T02300065  RH  034%=      5-min Rain = 0
KGO1 070044Z 19010KT 23/07 A2989 RMK A01 T02300066  RH  035%=      5-min Rain = 0
KGO1 070045Z 19011KT 23/07 A2989 RMK A01 T02300067  RH  035%=      5-min Rain = 0
KGO1 070046Z 19010KT 23/07 A2989 RMK A01 T02290068  RH  035%=      5-min Rain = 0
KGO1 070047Z 19010KT 23/07 A2989 RMK A01 T02290068  RH  036%=      5-min Rain = 0
KGO1 070048Z 19012KT 23/07 A2989 RMK A01 T02290069  RH  036%=      5-min Rain = 0
KGO1 070049Z 19011KT 23/07 A2989 RMK A01 T02280070  RH  036%=      5-min Rain = 0
KGO1 070050Z 19011KT 23/07 A2989 RMK A01 T02290071  RH  036%=      5-min Rain = 0
KGO1 070051Z 19010KT 23/07 A2989 RMK A01 T02290072  RH  036%=      5-min Rain = 0
KGO1 070052Z 19012KT 23/07 A2989 RMK A01 T02280073  RH  037%=      5-min Rain = 0
KGO1 070053Z 18011KT 23/07 A2989 RMK A01 T02280073  RH  037%=      5-min Rain = 0
KGO1 070054Z 19012KT 23/07 A2989 RMK A01 T02270074  RH  037%=      5-min Rain = 0
KGO1 070055Z 18014KT 23/08 A2989 RMK A01 T02270077  RH  038%=      5-min Rain = 0
KGO1 070056Z 18014KT 23/08 A2989 RMK A01 T02280081  RH  039%=      5-min Rain = 0
KGO1 070057Z 18015KT 23/08 A2989 RMK A01 T02280083  RH  039%=      5-min Rain = 0
KGO1 070058Z 19014KT 23/09 A2989 RMK A01 T02280091  RH  042%=      5-min Rain = 0
KGO1 070059Z 18013KT 23/09 A2989 RMK A01 T02280094  RH  043%=      5-min Rain = 0
KGO1 070100Z 19015KT 23/10 A2989 RMK A01 T02270100  RH  045%=      5-min Rain = 0
KGO1 070101Z 19016KT 23/11 A299 RMK A01 T02270105  RH  046%=      5-min Rain = 0
KGO1 070102Z 18015KT 23/11 A299 RMK A01 T02270107  RH  047%=      5-min Rain = 0
KGO1 070103Z 19013KT 23/11 A299 RMK A01 T02260107  RH  047%=      5-min Rain = 0
KGO1 070104Z 18014KT 23/11 A299 RMK A01 T02260109  RH  047%=      5-min Rain = 0
KGO1 070105Z 18015KT 23/11 A2989 RMK A01 T02260110  RH  048%=      5-min Rain = 0
KGO1 070106Z 18017KT 23/11 A2989 RMK A01 T02260111  RH  048%=      5-min Rain = 0
KGO1 070107Z 18015KT 23/11 A2989 RMK A01 T02260112  RH  048%=      5-min Rain = 0
KGO1 070108Z 18014KT 23/11 A2989 RMK A01 T02250112  RH  049%=      5-min Rain = 0
KGO1 070109Z 18015KT 23/11 A2989 RMK A01 T02250112  RH  049%=      5-min Rain = 0
KGO1 070110Z 18012KT 22/11 A2989 RMK A01 T02240113  RH  049%=      5-min Rain = 0
KGO1 070111Z 18012KT 22/11 A299 RMK A01 T02230113  RH  049%=      5-min Rain = 0
KGO1 070112Z 18014KT 22/11 A299 RMK A01 T02220113  RH  050%=      5-min Rain = 0
KGO1 070113Z 18014KT 22/11 A299 RMK A01 T02220113  RH  050%=      5-min Rain = 0
KGO1 070114Z 18013KT 22/11 A299 RMK A01 T02220113  RH  050%=      5-min Rain = 0
KGO1 070115Z 18016KT 22/11 A299 RMK A01 T02220113  RH  050%=      5-min Rain = 0
KGO1 070116Z 18015KT 22/11 A299 RMK A01 T02220113  RH  050%=      5-min Rain = 0
KGO1 070117Z 18014KT 22/11 A299 RMK A01 T02220112  RH  050%=      5-min Rain = 0
KGO1 070118Z 18014KT 22/11 A299 RMK A01 T02220112  RH  050%=      5-min Rain = 0
KGO1 070119Z 19013KT 22/11 A299 RMK A01 T02220113  RH  050%=      5-min Rain = 0
KGO1 070120Z 18015KT 22/11 A299 RMK A01 T02210113  RH  050%=      5-min Rain = 0
KGO1 070121Z 18015KT 22/11 A299 RMK A01 T02220113  RH  050%=      5-min Rain = 0
KGO1 070122Z 18014KT 22/11 A299 RMK A01 T02220113  RH  050%=      5-min Rain = 0
KGO1 070123Z 18013KT 22/11 A299 RMK A01 T02210113  RH  050%=      5-min Rain = 0
KGO1 070124Z 18016KT 22/11 A299 RMK A01 T02200113  RH  050%=      5-min Rain = 0
KGO1 070125Z 19015KT 22/11 A299 RMK A01 T02200113  RH  051%=      5-min Rain = 0
KGO1 070126Z 18015KT 22/11 A299 RMK A01 T02200113  RH  050%=      5-min Rain = 0
KGO1 070127Z 18016KT 22/11 A299 RMK A01 T02200112  RH  050%=      5-min Rain = 0
KGO1 070128Z 18014KT 22/11 A299 RMK A01 T02210112  RH  050%=      5-min Rain = 0
KGO1 070129Z 18014KT 22/11 A299 RMK A01 T02210113  RH  050%=      5-min Rain = 0
KGO1 070130Z 18014KT 22/11 A299 RMK A01 T02200112  RH  050%=      5-min Rain = 0
KGO1 070131Z 18015KT 22/11 A299 RMK A01 T02200113  RH  051%=      5-min Rain = 0
KGO1 070132Z 18015G20KT 22/11 A299 RMK A01 T02190112  RH  051%=      5-min Rain = 0
KGO1 070133Z 18014KT 22/11 A299 RMK A01 T02190112  RH  051%=      5-min Rain = 0
KGO1 070134Z 18015KT 22/11 A299 RMK A01 T02190112  RH  051%=      5-min Rain = 0
KGO1 070135Z 18015KT 22/11 A299 RMK A01 T02180112  RH  051%=      5-min Rain = 0
KGO1 070136Z 18014KT 22/11 A299 RMK A01 T02180112  RH  051%=      5-min Rain = 0
KGO1 070137Z 18015KT 22/11 A299 RMK A01 T02180112  RH  051%=      5-min Rain = 0
KGO1 070138Z 18014KT 22/11 A299 RMK A01 T02180112  RH  051%=      5-min Rain = 0
KGO1 070139Z 18013KT 22/11 A299 RMK A01 T02180112  RH  051%=      5-min Rain = 0
KGO1 070140Z 18013KT 22/11 A299 RMK A01 T02170112  RH  051%=      5-min Rain = 0
KGO1 070141Z 18014KT 22/11 A299 RMK A01 T02170113  RH  051%=      5-min Rain = 0
KGO1 070142Z 18013KT 22/11 A299 RMK A01 T02170113  RH  051%=      5-min Rain = 0
KGO1 070143Z 18012KT 22/11 A299 RMK A01 T02160112  RH  052%=      5-min Rain = 0
KGO1 070144Z 18014KT 22/11 A299 RMK A01 T02160113  RH  052%=      5-min Rain = 0
KGO1 070145Z 18012KT 22/11 A299 RMK A01 T02160113  RH  052%=      5-min Rain = 0
KGO1 070146Z 18012KT 22/11 A299 RMK A01 T02150113  RH  052%=      5-min Rain = 0
KGO1 070147Z 18013KT 22/11 A299 RMK A01 T02150113  RH  052%=      5-min Rain = 0
KGO1 070148Z 18012KT 22/11 A299 RMK A01 T02150113  RH  052%=      5-min Rain = 0
KGO1 070149Z 18011KT 21/11 A299 RMK A01 T02140113  RH  052%=      5-min Rain = 0
KGO1 070150Z 18012G17KT 21/11 A299 RMK A01 T02140113  RH  053%=      5-min Rain = 0
KGO1 070151Z 18014KT 21/11 A299 RMK A01 T02130113  RH  053%=      5-min Rain = 0
KGO1 070152Z 18013KT 21/11 A2991 RMK A01 T02130113  RH  053%=      5-min Rain = 0
KGO1 070153Z 18013KT 21/11 A2991 RMK A01 T02130113  RH  053%=      5-min Rain = 0
KGO1 070154Z 19013KT 21/11 A2991 RMK A01 T02130113  RH  053%=      5-min Rain = 0
KGO1 070155Z 19014KT 21/11 A2991 RMK A01 T02130114  RH  053%=      5-min Rain = 0
KGO1 070156Z 18014KT 21/11 A2991 RMK A01 T02140114  RH  053%=      5-min Rain = 0
KGO1 070157Z 19012KT 21/11 A2991 RMK A01 T02130114  RH  053%=      5-min Rain = 0
KGO1 070158Z 19013KT 21/11 A2991 RMK A01 T02130114  RH  053%=      5-min Rain = 0
KGO1 070159Z 19014KT 21/11 A2991 RMK A01 T02120114  RH  053%=      5-min Rain = 0
KGO1 070200Z 19013KT 21/11 A2991 RMK A01 T02120114  RH  053%=      5-min Rain = 0
KGO1 070201Z 19014KT 21/11 A2991 RMK A01 T02120114  RH  054%=      5-min Rain = 0
KGO1 070202Z 19013KT 21/12 A2991 RMK A01 T02120115  RH  054%=      5-min Rain = 0
KGO1 070203Z 19015KT 21/11 A2991 RMK A01 T02110114  RH  054%=      5-min Rain = 0
KGO1 070204Z 19015KT 21/12 A2991 RMK A01 T02120115  RH  054%=      5-min Rain = 0
KGO1 070205Z 19014KT 21/12 A2991 RMK A01 T02120115  RH  054%=      5-min Rain = 0
KGO1 070206Z 19013KT 21/12 A2991 RMK A01 T02120115  RH  054%=      5-min Rain = 0
KGO1 070207Z 18013KT 21/12 A2991 RMK A01 T02120115  RH  054%=      5-min Rain = 0
KGO1 070208Z 19014KT 21/12 A2991 RMK A01 T02110115  RH  054%=      5-min Rain = 0
KGO1 070209Z 18014KT 21/12 A2991 RMK A01 T02100115  RH  054%=      5-min Rain = 0
KGO1 070210Z 19014KT 21/12 A2991 RMK A01 T02110116  RH  055%=      5-min Rain = 0
KGO1 070211Z 19013KT 21/12 A2991 RMK A01 T02100116  RH  055%=      5-min Rain = 0
KGO1 070212Z 19015KT 21/12 A2991 RMK A01 T02090116  RH  055%=      5-min Rain = 0
KGO1 070213Z 19013KT 21/12 A2991 RMK A01 T02100116  RH  055%=      5-min Rain = 0
KGO1 070214Z 19013KT 21/12 A2991 RMK A01 T02100117  RH  055%=      5-min Rain = 0
KGO1 070215Z 19013KT 21/12 A2992 RMK A01 T02090116  RH  055%=      5-min Rain = 0
KGO1 070216Z 19012KT 21/12 A2992 RMK A01 T02090117  RH  055%=      5-min Rain = 0
KGO1 070217Z 19012KT 21/12 A2992 RMK A01 T02090116  RH  055%=      5-min Rain = 0
KGO1 070218Z 19011KT 21/12 A2992 RMK A01 T02080116  RH  056%=      5-min Rain = 0
KGO1 070219Z 19013KT 21/12 A2992 RMK A01 T02080117  RH  056%=      5-min Rain = 0
KGO1 070220Z 19012KT 21/12 A2992 RMK A01 T02080117  RH  056%=      5-min Rain = 0
KGO1 070221Z 19011KT 21/12 A2992 RMK A01 T02080117  RH  056%=      5-min Rain = 0
KGO1 070222Z 19012KT 21/12 A2992 RMK A01 T02070117  RH  056%=      5-min Rain = 0
KGO1 070223Z 19012KT 21/12 A2992 RMK A01 T02060117  RH  057%=      5-min Rain = 0
KGO1 070224Z 19013KT 21/12 A2992 RMK A01 T02060118  RH  057%=      5-min Rain = 0
KGO1 070225Z 19011KT 21/12 A2992 RMK A01 T02060117  RH  057%=      5-min Rain = 0
KGO1 070226Z 19011KT 21/12 A2992 RMK A01 T02050118  RH  057%=      5-min Rain = 0
KGO1 070227Z 19013KT 21/12 A2992 RMK A01 T02050118  RH  057%=      5-min Rain = 0
KGO1 070228Z 19013KT 21/12 A2992 RMK A01 T02060119  RH  057%=      5-min Rain = 0
KGO1 070229Z 19013KT 21/12 A2992 RMK A01 T02050119  RH  058%=      5-min Rain = 0
KGO1 070230Z 19012KT 21/12 A2992 RMK A01 T02050119  RH  058%=      5-min Rain = 0
KGO1 070231Z 19012KT 21/12 A2992 RMK A01 T02050119  RH  058%=      5-min Rain = 0
KGO1 070232Z 19012KT 21/12 A2992 RMK A01 T02050119  RH  058%=      5-min Rain = 0
KGO1 070233Z 19013KT 21/12 A2992 RMK A01 T02050120  RH  058%=      5-min Rain = 0
KGO1 070234Z 19013KT 21/12 A2992 RMK A01 T02050120  RH  058%=      5-min Rain = 0
KGO1 070235Z 19013KT 21/12 A2992 RMK A01 T02050120  RH  058%=      5-min Rain = 0
KGO1 070236Z 19011KT 21/12 A2992 RMK A01 T02050120  RH  058%=      5-min Rain = 0
KGO1 070237Z 19013KT 20/12 A2992 RMK A01 T02040120  RH  059%=      5-min Rain = 0
KGO1 070238Z 19013KT 20/12 A2992 RMK A01 T02040120  RH  059%=      5-min Rain = 0
KGO1 070239Z 19012KT 20/12 A2992 RMK A01 T02040121  RH  059%=      5-min Rain = 0
KGO1 070240Z 19013KT 20/12 A2992 RMK A01 T02040121  RH  059%=      5-min Rain = 0
KGO1 070241Z 19013KT 20/12 A2992 RMK A01 T02030121  RH  059%=      5-min Rain = 0
KGO1 070242Z 19012KT 20/12 A2992 RMK A01 T02030122  RH  059%=      5-min Rain = 0
KGO1 070243Z 19012KT 20/12 A2992 RMK A01 T02020122  RH  060%=      5-min Rain = 0
KGO1 070244Z 19012KT 20/12 A2992 RMK A01 T02020122  RH  060%=      5-min Rain = 0
KGO1 070245Z 19012KT 20/12 A2992 RMK A01 T02010122  RH  060%=      5-min Rain = 0
KGO1 070246Z 19012KT 20/12 A2992 RMK A01 T02010122  RH  060%=      5-min Rain = 0
KGO1 070247Z 19012KT 20/12 A2992 RMK A01 T02010122  RH  060%=      5-min Rain = 0
KGO1 070248Z 19012KT 20/12 A2992 RMK A01 T02010122  RH  061%=      5-min Rain = 0
KGO1 070249Z 19013KT 20/12 A2992 RMK A01 T02010123  RH  061%=      5-min Rain = 0
KGO1 070250Z 19011KT 20/12 A2992 RMK A01 T02010123  RH  061%=      5-min Rain = 0
KGO1 070251Z 19013KT 20/12 A2992 RMK A01 T02000123  RH  061%=      5-min Rain = 0
KGO1 070252Z 19012KT 20/12 A2992 RMK A01 T02000123  RH  061%=      5-min Rain = 0
KGO1 070253Z 19012KT 20/12 A2993 RMK A01 T02000123  RH  061%=      5-min Rain = 0
KGO1 070254Z 19012KT 20/12 A2993 RMK A01 T02000124  RH  061%=      5-min Rain = 0
KGO1 070255Z 19013KT 20/12 A2993 RMK A01 T02000124  RH  061%=      5-min Rain = 0
KGO1 070256Z 19013KT 20/12 A2993 RMK A01 T02010124  RH  061%=      5-min Rain = 0
KGO1 070257Z 19013KT 20/12 A2993 RMK A01 T02010124  RH  061%=      5-min Rain = 0
KGO1 070258Z 19012KT 20/12 A2993 RMK A01 T02010124  RH  061%=      5-min Rain = 0
KGO1 070259Z 19012KT 20/13 A2993 RMK A01 T02010125  RH  061%=      5-min Rain = 0
KGO1 070300Z 19011KT 20/13 A2993 RMK A01 T02000125  RH  062%=      5-min Rain = 0
KGO1 070301Z 19011KT 20/13 A2993 RMK A01 T02000125  RH  062%=      5-min Rain = 0
KGO1 070302Z 19013KT 20/13 A2993 RMK A01 T02000125  RH  062%=      5-min Rain = 0
KGO1 070303Z 19011KT 20/13 A2993 RMK A01 T02000126  RH  062%=      5-min Rain = 0
KGO1 070304Z 19013KT 20/13 A2993 RMK A01 T01990125  RH  063%=      5-min Rain = 0
KGO1 070305Z 19012KT 20/13 A2993 RMK A01 T01990126  RH  063%=      5-min Rain = 0
KGO1 070306Z 19012KT 20/13 A2993 RMK A01 T01990126  RH  063%=      5-min Rain = 0
KGO1 070307Z 19010KT 20/13 A2994 RMK A01 T01990126  RH  063%=      5-min Rain = 0
KGO1 070308Z 19010KT 20/13 A2994 RMK A01 T01980126  RH  063%=      5-min Rain = 0
KGO1 070309Z 19010KT 20/13 A2994 RMK A01 T01970126  RH  063%=      5-min Rain = 0
KGO1 070310Z 18010KT 20/13 A2994 RMK A01 T01960126  RH  064%=      5-min Rain = 0
KGO1 070311Z 19010KT 20/13 A2994 RMK A01 T01970126  RH  064%=      5-min Rain = 0
KGO1 070312Z 19010KT 20/13 A2994 RMK A01 T01970127  RH  064%=      5-min Rain = 0
KGO1 070313Z 19009KT 20/13 A2994 RMK A01 T01970127  RH  064%=      5-min Rain = 0
KGO1 070314Z 19012KT 20/13 A2994 RMK A01 T01950127  RH  064%=      5-min Rain = 0
KGO1 070315Z 18012KT 20/13 A2994 RMK A01 T01960127  RH  065%=      5-min Rain = 0
KGO1 070316Z 19011KT 20/13 A2994 RMK A01 T01960127  RH  065%=      5-min Rain = 0
KGO1 070317Z 19011KT 20/13 A2994 RMK A01 T01960128  RH  065%=      5-min Rain = 0
KGO1 070318Z 18010KT 20/13 A2994 RMK A01 T01960128  RH  065%=      5-min Rain = 0
KGO1 070319Z 19011KT 20/13 A2994 RMK A01 T01960128  RH  065%=      5-min Rain = 0
KGO1 070320Z 19010KT 20/13 A2994 RMK A01 T01960128  RH  065%=      5-min Rain = 0
KGO1 070321Z 19011KT 20/13 A2994 RMK A01 T01950128  RH  065%=      5-min Rain = 0
KGO1 070322Z 19011KT 20/13 A2994 RMK A01 T01950128  RH  065%=      5-min Rain = 0
KGO1 070323Z 19011KT 19/13 A2994 RMK A01 T01940128  RH  066%=      5-min Rain = 0
KGO1 070324Z 18011KT 19/13 A2994 RMK A01 T01940128  RH  066%=      5-min Rain = 0
KGO1 070325Z 19011KT 19/13 A2994 RMK A01 T01940129  RH  066%=      5-min Rain = 0
KGO1 070326Z 19011KT 19/13 A2994 RMK A01 T01930128  RH  066%=      5-min Rain = 0
KGO1 070327Z 18010KT 19/13 A2994 RMK A01 T01930129  RH  066%=      5-min Rain = 0
KGO1 070328Z 18010KT 19/13 A2994 RMK A01 T01930129  RH  066%=      5-min Rain = 0
KGO1 070329Z 19010KT 19/13 A2994 RMK A01 T01930129  RH  066%=      5-min Rain = 0
KGO1 070330Z 18009KT 19/13 A2994 RMK A01 T01920128  RH  066%=      5-min Rain = 0
KGO1 070331Z 19009KT 19/13 A2994 RMK A01 T01910128  RH  067%=      5-min Rain = 0
KGO1 070332Z 18009KT 19/13 A2994 RMK A01 T01910129  RH  067%=      5-min Rain = 0
KGO1 070333Z 18009KT 19/13 A2994 RMK A01 T01910129  RH  067%=      5-min Rain = 0
KGO1 070334Z 18009KT 19/13 A2994 RMK A01 T01910129  RH  067%=      5-min Rain = 0
KGO1 070335Z 18009KT 19/13 A2994 RMK A01 T01900129  RH  067%=      5-min Rain = 0
KGO1 070336Z 18009KT 19/13 A2994 RMK A01 T01900129  RH  068%=      5-min Rain = 0
KGO1 070337Z 18009KT 19/13 A2994 RMK A01 T01900129  RH  068%=      5-min Rain = 0
KGO1 070338Z 18010KT 19/13 A2994 RMK A01 T01900129  RH  068%=      5-min Rain = 0
KGO1 070339Z 18010KT 19/13 A2994 RMK A01 T01890129  RH  068%=      5-min Rain = 0
KGO1 070340Z 18009KT 19/13 A2994 RMK A01 T01900130  RH  068%=      5-min Rain = 0
KGO1 070341Z 17008KT 19/13 A2994 RMK A01 T01900130  RH  068%=      5-min Rain = 0
KGO1 070342Z 18008KT 19/13 A2994 RMK A01 T01890129  RH  068%=      5-min Rain = 0
KGO1 070343Z 18008KT 19/13 A2994 RMK A01 T01880129  RH  068%=      5-min Rain = 0
KGO1 070344Z 18008KT 19/13 A2994 RMK A01 T01880129  RH  069%=      5-min Rain = 0
KGO1 070345Z 17009KT 19/13 A2994 RMK A01 T01870129  RH  069%=      5-min Rain = 0
KGO1 070346Z 18009KT 19/13 A2994 RMK A01 T01870129  RH  069%=      5-min Rain = 0
KGO1 070347Z 17008KT 19/13 A2994 RMK A01 T01860129  RH  069%=      5-min Rain = 0
KGO1 070348Z 17009KT 19/13 A2994 RMK A01 T01860130  RH  070%=      5-min Rain = 0
KGO1 070349Z 17009KT 19/13 A2994 RMK A01 T01850130  RH  070%=      5-min Rain = 0
KGO1 070350Z 17009KT 18/13 A2994 RMK A01 T01840130  RH  070%=      5-min Rain = 0
KGO1 070351Z 17009KT 18/13 A2994 RMK A01 T01840130  RH  070%=      5-min Rain = 0
KGO1 070352Z 17009KT 18/13 A2994 RMK A01 T01840130  RH  071%=      5-min Rain = 0
KGO1 070353Z 17008KT 18/13 A2994 RMK A01 T01830130  RH  071%=      5-min Rain = 0
KGO1 070354Z 17008KT 18/13 A2994 RMK A01 T01820130  RH  071%=      5-min Rain = 0
KGO1 070355Z 17008KT 18/13 A2994 RMK A01 T01810130  RH  072%=      5-min Rain = 0
KGO1 070356Z 17009KT 18/13 A2994 RMK A01 T01810130  RH  072%=      5-min Rain = 0
KGO1 070357Z 17009KT 18/13 A2994 RMK A01 T01800130  RH  072%=      5-min Rain = 0
KGO1 070358Z 17009KT 18/13 A2994 RMK A01 T01800130  RH  072%=      5-min Rain = 0
KGO1 070359Z 17008KT 18/13 A2994 RMK A01 T01800130  RH  073%=      5-min Rain = 0
KGO1 070400Z 17009KT 18/13 A2994 RMK A01 T01790130  RH  073%=      5-min Rain = 0
KGO1 070401Z 17009KT 18/13 A2994 RMK A01 T01800131  RH  073%=      5-min Rain = 0
KGO1 070402Z 18008KT 18/13 A2994 RMK A01 T01800130  RH  073%=      5-min Rain = 0
KGO1 070403Z 17007KT 18/13 A2994 RMK A01 T01790130  RH  073%=      5-min Rain = 0
KGO1 070404Z 16008KT 18/13 A2994 RMK A01 T01780130  RH  073%=      5-min Rain = 0
KGO1 070405Z 16010KT 18/13 A2994 RMK A01 T01770131  RH  074%=      5-min Rain = 0
KGO1 070406Z 17009KT 18/13 A2994 RMK A01 T01790131  RH  074%=      5-min Rain = 0
KGO1 070407Z 17009KT 18/13 A2994 RMK A01 T01800131  RH  073%=      5-min Rain = 0
KGO1 070408Z 16008KT 18/13 A2994 RMK A01 T01800132  RH  073%=      5-min Rain = 0
KGO1 070409Z 16009KT 18/13 A2994 RMK A01 T01800131  RH  073%=      5-min Rain = 0
KGO1 070410Z 16009KT 18/13 A2994 RMK A01 T01790130  RH  073%=      5-min Rain = 0
KGO1 070411Z 16009KT 18/13 A2994 RMK A01 T01770129  RH  073%=      5-min Rain = 0
KGO1 070412Z 16009KT 18/13 A2994 RMK A01 T01770129  RH  074%=      5-min Rain = 0
KGO1 070413Z 16008KT 18/13 A2994 RMK A01 T01760129  RH  074%=      5-min Rain = 0
KGO1 070414Z 16008KT 18/13 A2994 RMK A01 T01750128  RH  074%=      5-min Rain = 0
KGO1 070415Z 16009KT 17/13 A2994 RMK A01 T01740128  RH  074%=      5-min Rain = 0
KGO1 070416Z 16009KT 17/13 A2994 RMK A01 T01720128  RH  075%=      5-min Rain = 0
KGO1 070417Z 17008KT 17/13 A2994 RMK A01 T01720128  RH  076%=      5-min Rain = 0
KGO1 070418Z 17007KT 17/13 A2994 RMK A01 T01710128  RH  076%=      5-min Rain = 0
KGO1 070419Z 16008KT 17/13 A2994 RMK A01 T01700128  RH  076%=      5-min Rain = 0
KGO1 070420Z 16008KT 17/13 A2994 RMK A01 T01700128  RH  077%=      5-min Rain = 0
KGO1 070421Z 17008KT 17/13 A2994 RMK A01 T01700129  RH  077%=      5-min Rain = 0
KGO1 070422Z 18007KT 17/13 A2994 RMK A01 T01700129  RH  077%=      5-min Rain = 0
KGO1 070423Z 17007KT 17/13 A2994 RMK A01 T01690129  RH  077%=      5-min Rain = 0
KGO1 070424Z 18007KT 17/13 A2994 RMK A01 T01690129  RH  078%=      5-min Rain = 0
KGO1 070425Z 17007KT 17/13 A2994 RMK A01 T01680129  RH  078%=      5-min Rain = 0
KGO1 070426Z 18007KT 17/13 A2994 RMK A01 T01670128  RH  077%=      5-min Rain = 0
KGO1 070427Z 18009KT 17/13 A2994 RMK A01 T01660128  RH  078%=      5-min Rain = 0
KGO1 070428Z 17008KT 17/13 A2994 RMK A01 T01650127  RH  078%=      5-min Rain = 0
KGO1 070429Z 16009KT 17/13 A2994 RMK A01 T01650128  RH  079%=      5-min Rain = 0
KGO1 070430Z 16009KT 17/13 A2994 RMK A01 T01650129  RH  079%=      5-min Rain = 0
KGO1 070431Z 17009KT 17/13 A2994 RMK A01 T01660129  RH  079%=      5-min Rain = 0
KGO1 070432Z 18009KT 17/13 A2994 RMK A01 T01670130  RH  079%=      5-min Rain = 0
KGO1 070433Z 19008KT 17/13 A2994 RMK A01 T01680130  RH  078%=      5-min Rain = 0
KGO1 070434Z 19007KT 17/13 A2994 RMK A01 T01670128  RH  078%=      5-min Rain = 0
KGO1 070435Z 18009KT 17/13 A2994 RMK A01 T01650127  RH  078%=      5-min Rain = 0
KGO1 070436Z 17009KT 17/13 A2994 RMK A01 T01650129  RH  080%=      5-min Rain = 0
KGO1 070437Z 17010KT 17/13 A2994 RMK A01 T01670131  RH  079%=      5-min Rain = 0
KGO1 070438Z 17009KT 17/13 A2994 RMK A01 T01690131  RH  078%=      5-min Rain = 0
KGO1 070439Z 17009KT 17/13 A2994 RMK A01 T01700131  RH  078%=      5-min Rain = 0
KGO1 070440Z 17008KT 17/13 A2994 RMK A01 T01690130  RH  078%=      5-min Rain = 0
KGO1 070441Z 17008KT 17/13 A2994 RMK A01 T01680130  RH  078%=      5-min Rain = 0
KGO1 070442Z 17008KT 17/13 A2994 RMK A01 T01670130  RH  079%=      5-min Rain = 0
KGO1 070443Z 19007KT 17/13 A2994 RMK A01 T01660130  RH  079%=      5-min Rain = 0
KGO1 070444Z 18008KT 17/13 A2994 RMK A01 T01650130  RH  079%=      5-min Rain = 0
KGO1 070445Z 17008KT 17/13 A2994 RMK A01 T01650130  RH  080%=      5-min Rain = 0
KGO1 070446Z 18007KT 17/13 A2994 RMK A01 T01650130  RH  080%=      5-min Rain = 0
KGO1 070447Z 17009KT 17/13 A2994 RMK A01 T01650131  RH  080%=      5-min Rain = 0
KGO1 070448Z 18008KT 17/13 A2994 RMK A01 T01650131  RH  080%=      5-min Rain = 0
KGO1 070449Z 18008KT 17/13 A2994 RMK A01 T01660132  RH  080%=      5-min Rain = 0
KGO1 070450Z 19007KT 17/13 A2994 RMK A01 T01660132  RH  080%=      5-min Rain = 0
KGO1 070451Z 18008KT 17/13 A2994 RMK A01 T01660131  RH  080%=      5-min Rain = 0
KGO1 070452Z 18008KT 17/13 A2994 RMK A01 T01650131  RH  080%=      5-min Rain = 0
KGO1 070453Z 18007KT 17/13 A2994 RMK A01 T01650131  RH  080%=      5-min Rain = 0
KGO1 070454Z 18008KT 16/13 A2994 RMK A01 T01640131  RH  080%=      5-min Rain = 0
KGO1 070455Z 18008KT 16/13 A2994 RMK A01 T01630131  RH  081%=      5-min Rain = 0
KGO1 070456Z 18008KT 16/13 A2994 RMK A01 T01620131  RH  082%=      5-min Rain = 0
KGO1 070457Z 18009KT 16/13 A2994 RMK A01 T01620131  RH  082%=      5-min Rain = 0
KGO1 070458Z 18009KT 16/13 A2994 RMK A01 T01630132  RH  082%=      5-min Rain = 0
KGO1 070459Z 18009KT 16/13 A2994 RMK A01 T01630132  RH  082%=      5-min Rain = 0

Page generated in 0.13 seconds.